<?xml version="1.0" encoding="UTF-8" standalone="no" ?>
<gpx xmlns="http://www.topografix.com/GPX/1/1" xmlns:xsi="http://www.w3.org/2001/XMLSchema-instance" xsi:schemaLocation="http://www.topografix.com/GPX/1/1 http://www.topografix.com/GPX/1/1/gpx.xsd" version="1.1" creator="VisuGPX - https://www.visugpx.com">
  <metadata>
    <name>Etape 19</name>
    <desc><![CDATA[

]]></desc>
  </metadata>
  <wpt lat="42.90552" lon="9.46608">
    <ele>9.5</ele>
    <name><![CDATA[Aria Marina - Meria (20) (01/04-31/10)  (10m) +33617153410]]></name>
    <type><![CDATA[user]]></type>
  </wpt>
  <wpt lat="42.95893" lon="9.35398">
    <ele>30.5</ele>
    <name><![CDATA[l\'Isulottu - Centuri Morsiglia (20) (10/05-30/09)  (28m) +33495356281]]></name>
    <type><![CDATA[user]]></type>
  </wpt>
  <wpt lat="42.81172" lon="9.48586">
    <ele>10.7</ele>
    <name><![CDATA[La Casaiola - Sisco (20) [<51] (01/05-31/10)  (14m) +33495352010]]></name>
    <type><![CDATA[user]]></type>
  </wpt>
  <wpt lat="42.83897" lon="9.4735">
    <ele>6.3</ele>
    <name><![CDATA[La Pietra-LP - Pietracorbara (20) (20/03-04/11)  (6m) +33495352749]]></name>
    <type><![CDATA[user]]></type>
  </wpt>
  <wpt lat="42.67341" lon="9.44495">
    <ele>2.7</ele>
    <name><![CDATA[Les Sables Rouges - Bastia (20)  (7m) +33495333608]]></name>
    <type><![CDATA[user]]></type>
  </wpt>
  <wpt lat="42.88637" lon="9.47178">
    <ele>2</ele>
    <name><![CDATA[Santa Marina - Luri (20) [<51] (01/05-15/10)  (1m) +33495350286]]></name>
    <type><![CDATA[user]]></type>
  </wpt>
  <wpt lat="42.84733" lon="9.44027">
    <ele>78.8</ele>
    <name><![CDATA[U Licetu - Pietracorbara (20) [<51]  (83m) +33495352598]]></name>
    <type><![CDATA[user]]></type>
  </wpt>
  <wpt lat="42.96437" lon="9.44817">
    <ele>2.9</ele>
    <name><![CDATA[U Stazzo de la Plage - Rogliano (20) (20/06-15/09)  (4m) +33495354376]]></name>
    <type><![CDATA[user]]></type>
  </wpt>
  <wpt lat="42.90552" lon="9.46608">
    <ele>9.5</ele>
    <name><![CDATA[Aria Marina - Meria (20) (01/04-31/10)  (10m) +33617153410]]></name>
    <type><![CDATA[user]]></type>
  </wpt>
  <wpt lat="42.95893" lon="9.35398">
    <ele>30.5</ele>
    <name><![CDATA[l\'Isulottu - Centuri Morsiglia (20) (10/05-30/09)  (28m) +33495356281]]></name>
    <type><![CDATA[user]]></type>
  </wpt>
  <wpt lat="42.81172" lon="9.48586">
    <ele>10.7</ele>
    <name><![CDATA[La Casaiola - Sisco (20) [<51] (01/05-31/10)  (14m) +33495352010]]></name>
    <type><![CDATA[user]]></type>
  </wpt>
  <wpt lat="42.83897" lon="9.4735">
    <ele>6.3</ele>
    <name><![CDATA[La Pietra-LP - Pietracorbara (20) (20/03-04/11)  (6m) +33495352749]]></name>
    <type><![CDATA[user]]></type>
  </wpt>
  <wpt lat="42.67341" lon="9.44495">
    <ele>2.7</ele>
    <name><![CDATA[Les Sables Rouges - Bastia (20)  (7m) +33495333608]]></name>
    <type><![CDATA[user]]></type>
  </wpt>
  <wpt lat="42.88637" lon="9.47178">
    <ele>2</ele>
    <name><![CDATA[Santa Marina - Luri (20) [<51] (01/05-15/10)  (1m) +33495350286]]></name>
    <type><![CDATA[user]]></type>
  </wpt>
  <wpt lat="42.84733" lon="9.44027">
    <ele>78.8</ele>
    <name><![CDATA[U Licetu - Pietracorbara (20) [<51]  (83m) +33495352598]]></name>
    <type><![CDATA[user]]></type>
  </wpt>
  <wpt lat="42.96437" lon="9.44817">
    <ele>2.9</ele>
    <name><![CDATA[U Stazzo de la Plage - Rogliano (20) (20/06-15/09)  (4m) +33495354376]]></name>
    <type><![CDATA[user]]></type>
  </wpt>
  <trk>
    <name><![CDATA[Etape 19]]></name>
    <extensions>
      <line xmlns="http://www.topografix.com/GPX/gpx_style/0/2">
        <color>008800</color>
        <opacity>1</opacity>
        <width>3</width>
          <extensions>
            <sens>1</sens>
          </extensions>
      </line>
    </extensions>
    <trkseg>
      <trkpt lat="42.95881" lon="9.35406">
        <ele>29.5</ele>
        <time>2023-06-16T14:45:45.367Z</time>
      </trkpt>
      <trkpt lat="42.95887" lon="9.35414">
        <ele>29.1</ele>
        <time>2023-06-16T14:45:47.264Z</time>
      </trkpt>
      <trkpt lat="42.95881" lon="9.35406">
        <ele>29.5</ele>
        <time>2023-06-16T14:45:49.786Z</time>
      </trkpt>
      <trkpt lat="42.9587" lon="9.35383">
        <ele>30.7</ele>
        <time>2023-06-16T14:45:56.080Z</time>
      </trkpt>
      <trkpt lat="42.95861" lon="9.35366">
        <ele>31.7</ele>
        <time>2023-06-16T14:46:00.974Z</time>
      </trkpt>
      <trkpt lat="42.95849" lon="9.35357">
        <ele>32.7</ele>
        <time>2023-06-16T14:46:05.454Z</time>
      </trkpt>
      <trkpt lat="42.95836" lon="9.35355">
        <ele>33.3</ele>
        <time>2023-06-16T14:46:09.367Z</time>
      </trkpt>
      <trkpt lat="42.95821" lon="9.3536">
        <ele>34.9</ele>
        <time>2023-06-16T14:46:14.980Z</time>
      </trkpt>
      <trkpt lat="42.95817" lon="9.35366">
        <ele>35</ele>
        <time>2023-06-16T14:46:16.599Z</time>
      </trkpt>
      <trkpt lat="42.95812" lon="9.35377">
        <ele>34.9</ele>
        <time>2023-06-16T14:46:18.972Z</time>
      </trkpt>
      <trkpt lat="42.95794" lon="9.35401">
        <ele>36.3</ele>
        <time>2023-06-16T14:46:26.740Z</time>
      </trkpt>
      <trkpt lat="42.95787" lon="9.35407">
        <ele>36.8</ele>
        <time>2023-06-16T14:46:29.334Z</time>
      </trkpt>
      <trkpt lat="42.95775" lon="9.35406">
        <ele>37.3</ele>
        <time>2023-06-16T14:46:32.880Z</time>
      </trkpt>
      <trkpt lat="42.95769" lon="9.35396">
        <ele>36.8</ele>
        <time>2023-06-16T14:46:35.021Z</time>
      </trkpt>
      <trkpt lat="42.95766" lon="9.35384">
        <ele>36.8</ele>
        <time>2023-06-16T14:46:37.422Z</time>
      </trkpt>
      <trkpt lat="42.95762" lon="9.35366">
        <ele>37.2</ele>
        <time>2023-06-16T14:46:41.322Z</time>
      </trkpt>
      <trkpt lat="42.95747" lon="9.35296">
        <ele>40.9</ele>
        <time>2023-06-16T14:46:58.575Z</time>
      </trkpt>
      <trkpt lat="42.95741" lon="9.35283">
        <ele>41.5</ele>
        <time>2023-06-16T14:47:02.023Z</time>
      </trkpt>
      <trkpt lat="42.95721" lon="9.35264">
        <ele>40.6</ele>
        <time>2023-06-16T14:47:07.660Z</time>
      </trkpt>
      <trkpt lat="42.95706" lon="9.35239">
        <ele>42.3</ele>
        <time>2023-06-16T14:47:15.373Z</time>
      </trkpt>
      <trkpt lat="42.95703" lon="9.35227">
        <ele>42.8</ele>
        <time>2023-06-16T14:47:18.222Z</time>
      </trkpt>
      <trkpt lat="42.957" lon="9.35217">
        <ele>42.4</ele>
        <time>2023-06-16T14:47:20.012Z</time>
      </trkpt>
      <trkpt lat="42.957" lon="9.35211">
        <ele>42.3</ele>
        <time>2023-06-16T14:47:21.072Z</time>
      </trkpt>
      <trkpt lat="42.95706" lon="9.35177">
        <ele>44</ele>
        <time>2023-06-16T14:47:29.265Z</time>
      </trkpt>
      <trkpt lat="42.95706" lon="9.3517">
        <ele>44.2</ele>
        <time>2023-06-16T14:47:30.764Z</time>
      </trkpt>
      <trkpt lat="42.95704" lon="9.35163">
        <ele>44.5</ele>
        <time>2023-06-16T14:47:32.456Z</time>
      </trkpt>
      <trkpt lat="42.95703" lon="9.35159">
        <ele>44.9</ele>
        <time>2023-06-16T14:47:33.688Z</time>
      </trkpt>
      <trkpt lat="42.95691" lon="9.35149">
        <ele>45.3</ele>
        <time>2023-06-16T14:47:37.663Z</time>
      </trkpt>
      <trkpt lat="42.95639" lon="9.35107">
        <ele>49.2</ele>
        <time>2023-06-16T14:47:56.879Z</time>
      </trkpt>
      <trkpt lat="42.95573" lon="9.3506">
        <ele>53.4</ele>
        <time>2023-06-16T14:48:19.924Z</time>
      </trkpt>
      <trkpt lat="42.95552" lon="9.3506">
        <ele>54.5</ele>
        <time>2023-06-16T14:48:26.340Z</time>
      </trkpt>
      <trkpt lat="42.95508" lon="9.351">
        <ele>57.9</ele>
        <time>2023-06-16T14:48:43.139Z</time>
      </trkpt>
      <trkpt lat="42.95496" lon="9.35114">
        <ele>58</ele>
        <time>2023-06-16T14:48:47.301Z</time>
      </trkpt>
      <trkpt lat="42.95487" lon="9.35135">
        <ele>59.4</ele>
        <time>2023-06-16T14:48:53.241Z</time>
      </trkpt>
      <trkpt lat="42.95479" lon="9.35165">
        <ele>60.2</ele>
        <time>2023-06-16T14:48:59.972Z</time>
      </trkpt>
      <trkpt lat="42.95475" lon="9.35192">
        <ele>60.6</ele>
        <time>2023-06-16T14:49:05.519Z</time>
      </trkpt>
      <trkpt lat="42.9548" lon="9.35209">
        <ele>60.4</ele>
        <time>2023-06-16T14:49:08.833Z</time>
      </trkpt>
      <trkpt lat="42.95488" lon="9.35234">
        <ele>60.1</ele>
        <time>2023-06-16T14:49:13.767Z</time>
      </trkpt>
      <trkpt lat="42.95486" lon="9.35266">
        <ele>60.9</ele>
        <time>2023-06-16T14:49:20.533Z</time>
      </trkpt>
      <trkpt lat="42.9547" lon="9.35299">
        <ele>64.1</ele>
        <time>2023-06-16T14:49:31.323Z</time>
      </trkpt>
      <trkpt lat="42.95464" lon="9.35314">
        <ele>66.3</ele>
        <time>2023-06-16T14:49:37.248Z</time>
      </trkpt>
      <trkpt lat="42.95464" lon="9.35326">
        <ele>65.9</ele>
        <time>2023-06-16T14:49:39.235Z</time>
      </trkpt>
      <trkpt lat="42.95471" lon="9.35341">
        <ele>65</ele>
        <time>2023-06-16T14:49:42.182Z</time>
      </trkpt>
      <trkpt lat="42.95491" lon="9.35366">
        <ele>65.8</ele>
        <time>2023-06-16T14:49:49.873Z</time>
      </trkpt>
      <trkpt lat="42.95515" lon="9.35407">
        <ele>68.4</ele>
        <time>2023-06-16T14:50:02.223Z</time>
      </trkpt>
      <trkpt lat="42.95526" lon="9.35417">
        <ele>68.4</ele>
        <time>2023-06-16T14:50:05.641Z</time>
      </trkpt>
      <trkpt lat="42.95537" lon="9.35418">
        <ele>69.6</ele>
        <time>2023-06-16T14:50:09.723Z</time>
      </trkpt>
      <trkpt lat="42.95567" lon="9.35397">
        <ele>70.4</ele>
        <time>2023-06-16T14:50:19.112Z</time>
      </trkpt>
      <trkpt lat="42.95598" lon="9.35391">
        <ele>73.3</ele>
        <time>2023-06-16T14:50:30.068Z</time>
      </trkpt>
      <trkpt lat="42.95616" lon="9.35384">
        <ele>73.1</ele>
        <time>2023-06-16T14:50:34.753Z</time>
      </trkpt>
      <trkpt lat="42.9563" lon="9.35385">
        <ele>73.5</ele>
        <time>2023-06-16T14:50:38.718Z</time>
      </trkpt>
      <trkpt lat="42.95637" lon="9.35394">
        <ele>73.7</ele>
        <time>2023-06-16T14:50:41.371Z</time>
      </trkpt>
      <trkpt lat="42.95638" lon="9.35406">
        <ele>72.9</ele>
        <time>2023-06-16T14:50:43.371Z</time>
      </trkpt>
      <trkpt lat="42.95633" lon="9.35417">
        <ele>73</ele>
        <time>2023-06-16T14:50:45.903Z</time>
      </trkpt>
      <trkpt lat="42.95619" lon="9.35432">
        <ele>74.6</ele>
        <time>2023-06-16T14:50:52.071Z</time>
      </trkpt>
      <trkpt lat="42.95582" lon="9.35455">
        <ele>79.1</ele>
        <time>2023-06-16T14:51:07.223Z</time>
      </trkpt>
      <trkpt lat="42.95538" lon="9.35477">
        <ele>81.8</ele>
        <time>2023-06-16T14:51:21.788Z</time>
      </trkpt>
      <trkpt lat="42.95517" lon="9.35492">
        <ele>84.5</ele>
        <time>2023-06-16T14:51:30.723Z</time>
      </trkpt>
      <trkpt lat="42.95507" lon="9.35493">
        <ele>84.6</ele>
        <time>2023-06-16T14:51:33.398Z</time>
      </trkpt>
      <trkpt lat="42.95494" lon="9.35485">
        <ele>85.3</ele>
        <time>2023-06-16T14:51:37.707Z</time>
      </trkpt>
      <trkpt lat="42.95473" lon="9.35455">
        <ele>87.3</ele>
        <time>2023-06-16T14:51:47.413Z</time>
      </trkpt>
      <trkpt lat="42.95451" lon="9.35438">
        <ele>89.5</ele>
        <time>2023-06-16T14:51:56.089Z</time>
      </trkpt>
      <trkpt lat="42.95439" lon="9.35432">
        <ele>90.3</ele>
        <time>2023-06-16T14:52:00.127Z</time>
      </trkpt>
      <trkpt lat="42.95424" lon="9.3543">
        <ele>91.6</ele>
        <time>2023-06-16T14:52:05.287Z</time>
      </trkpt>
      <trkpt lat="42.95412" lon="9.35434">
        <ele>92.8</ele>
        <time>2023-06-16T14:52:09.677Z</time>
      </trkpt>
      <trkpt lat="42.95395" lon="9.35451">
        <ele>93.9</ele>
        <time>2023-06-16T14:52:16.110Z</time>
      </trkpt>
      <trkpt lat="42.95383" lon="9.35454">
        <ele>94.9</ele>
        <time>2023-06-16T14:52:20.226Z</time>
      </trkpt>
      <trkpt lat="42.95369" lon="9.35448">
        <ele>96.2</ele>
        <time>2023-06-16T14:52:25.289Z</time>
      </trkpt>
      <trkpt lat="42.95364" lon="9.3545">
        <ele>97.2</ele>
        <time>2023-06-16T14:52:27.915Z</time>
      </trkpt>
      <trkpt lat="42.95362" lon="9.35459">
        <ele>98.4</ele>
        <time>2023-06-16T14:52:31.156Z</time>
      </trkpt>
      <trkpt lat="42.95382" lon="9.3549">
        <ele>98.9</ele>
        <time>2023-06-16T14:52:39.391Z</time>
      </trkpt>
      <trkpt lat="42.95382" lon="9.35515">
        <ele>100.4</ele>
        <time>2023-06-16T14:52:45.564Z</time>
      </trkpt>
      <trkpt lat="42.95362" lon="9.35592">
        <ele>103.8</ele>
        <time>2023-06-16T14:53:04.107Z</time>
      </trkpt>
      <trkpt lat="42.95355" lon="9.35603">
        <ele>104.8</ele>
        <time>2023-06-16T14:53:07.854Z</time>
      </trkpt>
      <trkpt lat="42.95338" lon="9.35611">
        <ele>106.5</ele>
        <time>2023-06-16T14:53:14.188Z</time>
      </trkpt>
      <trkpt lat="42.95312" lon="9.35637">
        <ele>108.7</ele>
        <time>2023-06-16T14:53:24.566Z</time>
      </trkpt>
      <trkpt lat="42.95275" lon="9.35641">
        <ele>112.6</ele>
        <time>2023-06-16T14:53:38.129Z</time>
      </trkpt>
      <trkpt lat="42.95263" lon="9.35672">
        <ele>113.4</ele>
        <time>2023-06-16T14:53:45.450Z</time>
      </trkpt>
      <trkpt lat="42.95242" lon="9.35689">
        <ele>116.5</ele>
        <time>2023-06-16T14:53:55.093Z</time>
      </trkpt>
      <trkpt lat="42.95235" lon="9.35705">
        <ele>117</ele>
        <time>2023-06-16T14:53:59.054Z</time>
      </trkpt>
      <trkpt lat="42.95223" lon="9.35749">
        <ele>118.8</ele>
        <time>2023-06-16T14:54:09.554Z</time>
      </trkpt>
      <trkpt lat="42.95226" lon="9.35787">
        <ele>120.9</ele>
        <time>2023-06-16T14:54:18.773Z</time>
      </trkpt>
      <trkpt lat="42.95221" lon="9.35801">
        <ele>122.2</ele>
        <time>2023-06-16T14:54:23.073Z</time>
      </trkpt>
      <trkpt lat="42.95205" lon="9.35819">
        <ele>123.3</ele>
        <time>2023-06-16T14:54:29.420Z</time>
      </trkpt>
      <trkpt lat="42.95185" lon="9.35833">
        <ele>124.7</ele>
        <time>2023-06-16T14:54:36.515Z</time>
      </trkpt>
      <trkpt lat="42.95174" lon="9.35841">
        <ele>126.3</ele>
        <time>2023-06-16T14:54:41.463Z</time>
      </trkpt>
      <trkpt lat="42.95169" lon="9.35839">
        <ele>127.3</ele>
        <time>2023-06-16T14:54:44.088Z</time>
      </trkpt>
      <trkpt lat="42.95167" lon="9.35832">
        <ele>128</ele>
        <time>2023-06-16T14:54:46.263Z</time>
      </trkpt>
      <trkpt lat="42.9518" lon="9.35808">
        <ele>128.3</ele>
        <time>2023-06-16T14:54:52.161Z</time>
      </trkpt>
      <trkpt lat="42.95181" lon="9.35797">
        <ele>129.2</ele>
        <time>2023-06-16T14:54:55.188Z</time>
      </trkpt>
      <trkpt lat="42.95174" lon="9.35792">
        <ele>130.5</ele>
        <time>2023-06-16T14:54:58.772Z</time>
      </trkpt>
      <trkpt lat="42.95164" lon="9.35799">
        <ele>131.1</ele>
        <time>2023-06-16T14:55:02.217Z</time>
      </trkpt>
      <trkpt lat="42.95155" lon="9.35807">
        <ele>131.6</ele>
        <time>2023-06-16T14:55:05.435Z</time>
      </trkpt>
      <trkpt lat="42.95147" lon="9.35819">
        <ele>132.2</ele>
        <time>2023-06-16T14:55:09.043Z</time>
      </trkpt>
      <trkpt lat="42.95128" lon="9.35865">
        <ele>135.4</ele>
        <time>2023-06-16T14:55:22.121Z</time>
      </trkpt>
      <trkpt lat="42.95113" lon="9.35922">
        <ele>136</ele>
        <time>2023-06-16T14:55:34.079Z</time>
      </trkpt>
      <trkpt lat="42.95105" lon="9.35938">
        <ele>137.1</ele>
        <time>2023-06-16T14:55:38.793Z</time>
      </trkpt>
      <trkpt lat="42.95087" lon="9.35952">
        <ele>139.1</ele>
        <time>2023-06-16T14:55:46.140Z</time>
      </trkpt>
      <trkpt lat="42.95033" lon="9.35971">
        <ele>142.7</ele>
        <time>2023-06-16T14:56:03.878Z</time>
      </trkpt>
      <trkpt lat="42.95018" lon="9.35979">
        <ele>142.7</ele>
        <time>2023-06-16T14:56:08.043Z</time>
      </trkpt>
      <trkpt lat="42.95003" lon="9.36006">
        <ele>144.4</ele>
        <time>2023-06-16T14:56:16.041Z</time>
      </trkpt>
      <trkpt lat="42.94993" lon="9.36033">
        <ele>144.2</ele>
        <time>2023-06-16T14:56:21.613Z</time>
      </trkpt>
      <trkpt lat="42.94984" lon="9.36061">
        <ele>145.6</ele>
        <time>2023-06-16T14:56:28.686Z</time>
      </trkpt>
      <trkpt lat="42.94984" lon="9.36098">
        <ele>147.9</ele>
        <time>2023-06-16T14:56:37.915Z</time>
      </trkpt>
      <trkpt lat="42.94986" lon="9.36192">
        <ele>152</ele>
        <time>2023-06-16T14:56:59.450Z</time>
      </trkpt>
      <trkpt lat="42.94986" lon="9.36213">
        <ele>152</ele>
        <time>2023-06-16T14:57:03.426Z</time>
      </trkpt>
      <trkpt lat="42.94983" lon="9.36223">
        <ele>153.2</ele>
        <time>2023-06-16T14:57:06.846Z</time>
      </trkpt>
      <trkpt lat="42.94979" lon="9.36227">
        <ele>154.9</ele>
        <time>2023-06-16T14:57:11.478Z</time>
      </trkpt>
      <trkpt lat="42.94973" lon="9.36225">
        <ele>156.9</ele>
        <time>2023-06-16T14:57:16.810Z</time>
      </trkpt>
      <trkpt lat="42.94971" lon="9.36213">
        <ele>157.4</ele>
        <time>2023-06-16T14:57:19.590Z</time>
      </trkpt>
      <trkpt lat="42.94971" lon="9.36194">
        <ele>157.3</ele>
        <time>2023-06-16T14:57:23.109Z</time>
      </trkpt>
      <trkpt lat="42.94958" lon="9.36149">
        <ele>158.5</ele>
        <time>2023-06-16T14:57:33.297Z</time>
      </trkpt>
      <trkpt lat="42.94952" lon="9.36141">
        <ele>158.9</ele>
        <time>2023-06-16T14:57:35.820Z</time>
      </trkpt>
      <trkpt lat="42.94943" lon="9.3614">
        <ele>160.2</ele>
        <time>2023-06-16T14:57:39.615Z</time>
      </trkpt>
      <trkpt lat="42.9493" lon="9.36145">
        <ele>161.7</ele>
        <time>2023-06-16T14:57:44.655Z</time>
      </trkpt>
      <trkpt lat="42.94899" lon="9.36161">
        <ele>164.7</ele>
        <time>2023-06-16T14:57:56.168Z</time>
      </trkpt>
      <trkpt lat="42.94889" lon="9.36174">
        <ele>165.8</ele>
        <time>2023-06-16T14:58:00.788Z</time>
      </trkpt>
      <trkpt lat="42.94886" lon="9.36191">
        <ele>166.1</ele>
        <time>2023-06-16T14:58:04.350Z</time>
      </trkpt>
      <trkpt lat="42.94884" lon="9.36223">
        <ele>168.7</ele>
        <time>2023-06-16T14:58:13.110Z</time>
      </trkpt>
      <trkpt lat="42.94872" lon="9.36254">
        <ele>171</ele>
        <time>2023-06-16T14:58:21.998Z</time>
      </trkpt>
      <trkpt lat="42.94846" lon="9.36301">
        <ele>171.9</ele>
        <time>2023-06-16T14:58:33.902Z</time>
      </trkpt>
      <trkpt lat="42.94829" lon="9.36344">
        <ele>173.2</ele>
        <time>2023-06-16T14:58:44.275Z</time>
      </trkpt>
      <trkpt lat="42.94819" lon="9.36395">
        <ele>176.6</ele>
        <time>2023-06-16T14:58:57.584Z</time>
      </trkpt>
      <trkpt lat="42.94811" lon="9.36412">
        <ele>176.1</ele>
        <time>2023-06-16T14:59:01.039Z</time>
      </trkpt>
      <trkpt lat="42.94773" lon="9.3646">
        <ele>177.9</ele>
        <time>2023-06-16T14:59:15.973Z</time>
      </trkpt>
      <trkpt lat="42.94759" lon="9.36472">
        <ele>177.9</ele>
        <time>2023-06-16T14:59:20.247Z</time>
      </trkpt>
      <trkpt lat="42.94743" lon="9.36478">
        <ele>177.3</ele>
        <time>2023-06-16T14:59:24.096Z</time>
      </trkpt>
      <trkpt lat="42.94724" lon="9.36479">
        <ele>175</ele>
        <time>2023-06-16T14:59:28.399Z</time>
      </trkpt>
      <trkpt lat="42.9468" lon="9.36462">
        <ele>173.2</ele>
        <time>2023-06-16T14:59:38.906Z</time>
      </trkpt>
      <trkpt lat="42.94628" lon="9.3646">
        <ele>177.2</ele>
        <time>2023-06-16T14:59:56.155Z</time>
      </trkpt>
      <trkpt lat="42.94615" lon="9.36452">
        <ele>177.3</ele>
        <time>2023-06-16T14:59:59.923Z</time>
      </trkpt>
      <trkpt lat="42.94604" lon="9.3644">
        <ele>177.4</ele>
        <time>2023-06-16T15:00:03.645Z</time>
      </trkpt>
      <trkpt lat="42.9459" lon="9.36417">
        <ele>178.4</ele>
        <time>2023-06-16T15:00:10.190Z</time>
      </trkpt>
      <trkpt lat="42.94584" lon="9.36409">
        <ele>178.5</ele>
        <time>2023-06-16T15:00:12.440Z</time>
      </trkpt>
      <trkpt lat="42.94576" lon="9.36402">
        <ele>178</ele>
        <time>2023-06-16T15:00:14.590Z</time>
      </trkpt>
      <trkpt lat="42.94555" lon="9.36392">
        <ele>178.8</ele>
        <time>2023-06-16T15:00:21.032Z</time>
      </trkpt>
      <trkpt lat="42.9454" lon="9.3639">
        <ele>178.8</ele>
        <time>2023-06-16T15:00:24.930Z</time>
      </trkpt>
      <trkpt lat="42.94528" lon="9.36393">
        <ele>179.9</ele>
        <time>2023-06-16T15:00:29.162Z</time>
      </trkpt>
      <trkpt lat="42.94517" lon="9.36399">
        <ele>179.7</ele>
        <time>2023-06-16T15:00:32.072Z</time>
      </trkpt>
      <trkpt lat="42.94509" lon="9.36411">
        <ele>180.7</ele>
        <time>2023-06-16T15:00:36.111Z</time>
      </trkpt>
      <trkpt lat="42.94505" lon="9.36419">
        <ele>181.2</ele>
        <time>2023-06-16T15:00:38.412Z</time>
      </trkpt>
      <trkpt lat="42.94455" lon="9.3652">
        <ele>184.5</ele>
        <time>2023-06-16T15:01:04.348Z</time>
      </trkpt>
      <trkpt lat="42.9445" lon="9.36529">
        <ele>184.7</ele>
        <time>2023-06-16T15:01:06.655Z</time>
      </trkpt>
      <trkpt lat="42.94448" lon="9.36538">
        <ele>184.8</ele>
        <time>2023-06-16T15:01:08.518Z</time>
      </trkpt>
      <trkpt lat="42.94449" lon="9.36551">
        <ele>186</ele>
        <time>2023-06-16T15:01:12.276Z</time>
      </trkpt>
      <trkpt lat="42.9446" lon="9.36603">
        <ele>190.2</ele>
        <time>2023-06-16T15:01:26.803Z</time>
      </trkpt>
      <trkpt lat="42.94465" lon="9.36606">
        <ele>192</ele>
        <time>2023-06-16T15:01:31.632Z</time>
      </trkpt>
      <trkpt lat="42.94466" lon="9.36598">
        <ele>191.8</ele>
        <time>2023-06-16T15:01:33.020Z</time>
      </trkpt>
      <trkpt lat="42.94466" lon="9.3659">
        <ele>191.2</ele>
        <time>2023-06-16T15:01:34.345Z</time>
      </trkpt>
      <trkpt lat="42.94464" lon="9.36579">
        <ele>190.3</ele>
        <time>2023-06-16T15:01:36.223Z</time>
      </trkpt>
      <trkpt lat="42.94461" lon="9.36559">
        <ele>189.7</ele>
        <time>2023-06-16T15:01:39.649Z</time>
      </trkpt>
      <trkpt lat="42.9446" lon="9.3654">
        <ele>188.4</ele>
        <time>2023-06-16T15:01:42.805Z</time>
      </trkpt>
      <trkpt lat="42.94468" lon="9.36528">
        <ele>189.8</ele>
        <time>2023-06-16T15:01:47.347Z</time>
      </trkpt>
      <trkpt lat="42.94505" lon="9.36485">
        <ele>192.6</ele>
        <time>2023-06-16T15:02:02.448Z</time>
      </trkpt>
      <trkpt lat="42.94517" lon="9.36478">
        <ele>192.4</ele>
        <time>2023-06-16T15:02:05.669Z</time>
      </trkpt>
      <trkpt lat="42.94527" lon="9.36476">
        <ele>192.5</ele>
        <time>2023-06-16T15:02:08.364Z</time>
      </trkpt>
      <trkpt lat="42.94539" lon="9.36479">
        <ele>193</ele>
        <time>2023-06-16T15:02:11.956Z</time>
      </trkpt>
      <trkpt lat="42.94569" lon="9.36494">
        <ele>194</ele>
        <time>2023-06-16T15:02:21.071Z</time>
      </trkpt>
      <trkpt lat="42.94571" lon="9.36495">
        <ele>194</ele>
        <time>2023-06-16T15:02:21.622Z</time>
      </trkpt>
      <trkpt lat="42.94581" lon="9.36499">
        <ele>194</ele>
        <time>2023-06-16T15:02:24.317Z</time>
      </trkpt>
      <trkpt lat="42.94599" lon="9.36507">
        <ele>194.1</ele>
        <time>2023-06-16T15:02:29.293Z</time>
      </trkpt>
      <trkpt lat="42.94605" lon="9.36509">
        <ele>194.3</ele>
        <time>2023-06-16T15:02:31.062Z</time>
      </trkpt>
      <trkpt lat="42.94517" lon="9.3648">
        <ele>192.6</ele>
        <time>2023-06-16T15:02:53.174Z</time>
      </trkpt>
      <trkpt lat="42.94607" lon="9.36503">
        <ele>192.4</ele>
        <time>2023-06-16T15:03:16.697Z</time>
      </trkpt>
      <trkpt lat="42.94659" lon="9.36514">
        <ele>196</ele>
        <time>2023-06-16T15:03:33.653Z</time>
      </trkpt>
      <trkpt lat="42.94715" lon="9.36543">
        <ele>199.2</ele>
        <time>2023-06-16T15:03:52.014Z</time>
      </trkpt>
      <trkpt lat="42.94785" lon="9.36514">
        <ele>199.3</ele>
        <time>2023-06-16T15:04:11.013Z</time>
      </trkpt>
      <trkpt lat="42.94805" lon="9.36521">
        <ele>201</ele>
        <time>2023-06-16T15:04:17.987Z</time>
      </trkpt>
      <trkpt lat="42.94845" lon="9.36596">
        <ele>200.7</ele>
        <time>2023-06-16T15:04:35.318Z</time>
      </trkpt>
      <trkpt lat="42.94844" lon="9.36695">
        <ele>203.1</ele>
        <time>2023-06-16T15:04:56.118Z</time>
      </trkpt>
      <trkpt lat="42.95023" lon="9.36733">
        <ele>208.1</ele>
        <time>2023-06-16T15:05:47.200Z</time>
      </trkpt>
      <trkpt lat="42.95051" lon="9.36763">
        <ele>209.7</ele>
        <time>2023-06-16T15:05:57.811Z</time>
      </trkpt>
      <trkpt lat="42.95082" lon="9.36928">
        <ele>214.6</ele>
        <time>2023-06-16T15:06:34.316Z</time>
      </trkpt>
      <trkpt lat="42.95126" lon="9.37033">
        <ele>211.4</ele>
        <time>2023-06-16T15:06:54.860Z</time>
      </trkpt>
      <trkpt lat="42.95111" lon="9.37099">
        <ele>216</ele>
        <time>2023-06-16T15:07:12.457Z</time>
      </trkpt>
      <trkpt lat="42.95125" lon="9.37132">
        <ele>216.3</ele>
        <time>2023-06-16T15:07:19.923Z</time>
      </trkpt>
      <trkpt lat="42.9516" lon="9.37109">
        <ele>217</ele>
        <time>2023-06-16T15:07:30.547Z</time>
      </trkpt>
      <trkpt lat="42.95195" lon="9.37045">
        <ele>216.5</ele>
        <time>2023-06-16T15:07:45.280Z</time>
      </trkpt>
      <trkpt lat="42.95224" lon="9.37041">
        <ele>218.5</ele>
        <time>2023-06-16T15:07:54.679Z</time>
      </trkpt>
      <trkpt lat="42.95249" lon="9.37141">
        <ele>220.6</ele>
        <time>2023-06-16T15:08:16.458Z</time>
      </trkpt>
      <trkpt lat="42.95313" lon="9.37219">
        <ele>219.7</ele>
        <time>2023-06-16T15:08:37.939Z</time>
      </trkpt>
      <trkpt lat="42.95345" lon="9.37305">
        <ele>220.2</ele>
        <time>2023-06-16T15:08:56.606Z</time>
      </trkpt>
      <trkpt lat="42.95355" lon="9.37382">
        <ele>221.3</ele>
        <time>2023-06-16T15:09:12.323Z</time>
      </trkpt>
      <trkpt lat="42.95373" lon="9.37384">
        <ele>222.1</ele>
        <time>2023-06-16T15:09:17.697Z</time>
      </trkpt>
      <trkpt lat="42.95413" lon="9.37348">
        <ele>223.7</ele>
        <time>2023-06-16T15:09:31.457Z</time>
      </trkpt>
      <trkpt lat="42.95515" lon="9.37131">
        <ele>221.9</ele>
        <time>2023-06-16T15:10:18.872Z</time>
      </trkpt>
      <trkpt lat="42.95567" lon="9.37118">
        <ele>225.1</ele>
        <time>2023-06-16T15:10:35.464Z</time>
      </trkpt>
      <trkpt lat="42.95621" lon="9.37226">
        <ele>228</ele>
        <time>2023-06-16T15:11:02.691Z</time>
      </trkpt>
      <trkpt lat="42.95641" lon="9.37211">
        <ele>228.8</ele>
        <time>2023-06-16T15:11:09.280Z</time>
      </trkpt>
      <trkpt lat="42.95726" lon="9.37014">
        <ele>229.3</ele>
        <time>2023-06-16T15:11:52.969Z</time>
      </trkpt>
      <trkpt lat="42.95961" lon="9.36788">
        <ele>231</ele>
        <time>2023-06-16T15:13:08.665Z</time>
      </trkpt>
      <trkpt lat="42.96008" lon="9.36791">
        <ele>234.5</ele>
        <time>2023-06-16T15:13:24.134Z</time>
      </trkpt>
      <trkpt lat="42.96056" lon="9.36856">
        <ele>237.3</ele>
        <time>2023-06-16T15:13:44.057Z</time>
      </trkpt>
      <trkpt lat="42.96067" lon="9.36931">
        <ele>239</ele>
        <time>2023-06-16T15:13:59.982Z</time>
      </trkpt>
      <trkpt lat="42.96056" lon="9.36968">
        <ele>243.1</ele>
        <time>2023-06-16T15:14:12.100Z</time>
      </trkpt>
      <trkpt lat="42.96071" lon="9.37005">
        <ele>247.9</ele>
        <time>2023-06-16T15:14:25.655Z</time>
      </trkpt>
      <trkpt lat="42.96163" lon="9.37005">
        <ele>251.6</ele>
        <time>2023-06-16T15:14:52.670Z</time>
      </trkpt>
      <trkpt lat="42.9619" lon="9.37027">
        <ele>253.2</ele>
        <time>2023-06-16T15:15:02.228Z</time>
      </trkpt>
      <trkpt lat="42.96206" lon="9.3708">
        <ele>258.2</ele>
        <time>2023-06-16T15:15:18.345Z</time>
      </trkpt>
      <trkpt lat="42.96239" lon="9.37122">
        <ele>258.1</ele>
        <time>2023-06-16T15:15:29.930Z</time>
      </trkpt>
      <trkpt lat="42.96276" lon="9.37229">
        <ele>264.3</ele>
        <time>2023-06-16T15:15:58.136Z</time>
      </trkpt>
      <trkpt lat="42.9626" lon="9.37456">
        <ele>275.5</ele>
        <time>2023-06-16T15:16:51.679Z</time>
      </trkpt>
      <trkpt lat="42.96235" lon="9.3752">
        <ele>281.7</ele>
        <time>2023-06-16T15:17:11.899Z</time>
      </trkpt>
      <trkpt lat="42.96249" lon="9.37554">
        <ele>280.9</ele>
        <time>2023-06-16T15:17:18.683Z</time>
      </trkpt>
      <trkpt lat="42.96374" lon="9.37476">
        <ele>289.3</ele>
        <time>2023-06-16T15:18:01.900Z</time>
      </trkpt>
      <trkpt lat="42.96467" lon="9.37473">
        <ele>299.4</ele>
        <time>2023-06-16T15:18:36.315Z</time>
      </trkpt>
      <trkpt lat="42.96515" lon="9.3739">
        <ele>300.4</ele>
        <time>2023-06-16T15:18:57.156Z</time>
      </trkpt>
      <trkpt lat="42.96545" lon="9.37391">
        <ele>302.6</ele>
        <time>2023-06-16T15:19:06.987Z</time>
      </trkpt>
      <trkpt lat="42.9666" lon="9.37448">
        <ele>308.8</ele>
        <time>2023-06-16T15:19:44.155Z</time>
      </trkpt>
      <trkpt lat="42.96691" lon="9.37429">
        <ele>307.3</ele>
        <time>2023-06-16T15:19:51.853Z</time>
      </trkpt>
      <trkpt lat="42.96763" lon="9.37418">
        <ele>316.7</ele>
        <time>2023-06-16T15:20:20.761Z</time>
      </trkpt>
      <trkpt lat="42.96887" lon="9.37228">
        <ele>327.9</ele>
        <time>2023-06-16T15:21:19.153Z</time>
      </trkpt>
      <trkpt lat="42.96909" lon="9.37145">
        <ele>329.9</ele>
        <time>2023-06-16T15:21:37.565Z</time>
      </trkpt>
      <trkpt lat="42.97069" lon="9.36879">
        <ele>345.8</ele>
        <time>2023-06-16T15:22:57.327Z</time>
      </trkpt>
      <trkpt lat="42.97129" lon="9.36852">
        <ele>348.2</ele>
        <time>2023-06-16T15:23:15.744Z</time>
      </trkpt>
      <trkpt lat="42.97184" lon="9.36872">
        <ele>355.5</ele>
        <time>2023-06-16T15:23:38.332Z</time>
      </trkpt>
      <trkpt lat="42.9733" lon="9.367">
        <ele>364.6</ele>
        <time>2023-06-16T15:24:36.236Z</time>
      </trkpt>
      <trkpt lat="42.97354" lon="9.36722">
        <ele>365.8</ele>
        <time>2023-06-16T15:24:44.757Z</time>
      </trkpt>
      <trkpt lat="42.97316" lon="9.36878">
        <ele>363.2</ele>
        <time>2023-06-16T15:25:13.895Z</time>
      </trkpt>
      <trkpt lat="42.97309" lon="9.37027">
        <ele>359.9</ele>
        <time>2023-06-16T15:25:39.685Z</time>
      </trkpt>
      <trkpt lat="42.97366" lon="9.37282">
        <ele>353.4</ele>
        <time>2023-06-16T15:26:25.319Z</time>
      </trkpt>
      <trkpt lat="42.97322" lon="9.37388">
        <ele>349.2</ele>
        <time>2023-06-16T15:26:45.498Z</time>
      </trkpt>
      <trkpt lat="42.97309" lon="9.3747">
        <ele>346.1</ele>
        <time>2023-06-16T15:26:59.391Z</time>
      </trkpt>
      <trkpt lat="42.97353" lon="9.37565">
        <ele>342</ele>
        <time>2023-06-16T15:27:18.008Z</time>
      </trkpt>
      <trkpt lat="42.97354" lon="9.37617">
        <ele>342.2</ele>
        <time>2023-06-16T15:27:28.013Z</time>
      </trkpt>
      <trkpt lat="42.97402" lon="9.37804">
        <ele>334.1</ele>
        <time>2023-06-16T15:28:00.827Z</time>
      </trkpt>
      <trkpt lat="42.97506" lon="9.3792">
        <ele>324</ele>
        <time>2023-06-16T15:28:31.206Z</time>
      </trkpt>
      <trkpt lat="42.97531" lon="9.37988">
        <ele>321.9</ele>
        <time>2023-06-16T15:28:44.063Z</time>
      </trkpt>
      <trkpt lat="42.9762" lon="9.38052">
        <ele>316.1</ele>
        <time>2023-06-16T15:29:06.822Z</time>
      </trkpt>
      <trkpt lat="42.97684" lon="9.38292">
        <ele>307.3</ele>
        <time>2023-06-16T15:29:49.117Z</time>
      </trkpt>
      <trkpt lat="42.97692" lon="9.38276">
        <ele>303.9</ele>
        <time>2023-06-16T15:29:52.326Z</time>
      </trkpt>
      <trkpt lat="42.97677" lon="9.38215">
        <ele>305.2</ele>
        <time>2023-06-16T15:30:05.603Z</time>
      </trkpt>
      <trkpt lat="42.97695" lon="9.38069">
        <ele>295.8</ele>
        <time>2023-06-16T15:30:30.118Z</time>
      </trkpt>
      <trkpt lat="42.97688" lon="9.38017">
        <ele>293.6</ele>
        <time>2023-06-16T15:30:38.872Z</time>
      </trkpt>
      <trkpt lat="42.97631" lon="9.37965">
        <ele>290.5</ele>
        <time>2023-06-16T15:30:54.381Z</time>
      </trkpt>
      <trkpt lat="42.97616" lon="9.37929">
        <ele>286.5</ele>
        <time>2023-06-16T15:31:01.241Z</time>
      </trkpt>
      <trkpt lat="42.97625" lon="9.37781">
        <ele>277</ele>
        <time>2023-06-16T15:31:25.830Z</time>
      </trkpt>
      <trkpt lat="42.97543" lon="9.37666">
        <ele>271</ele>
        <time>2023-06-16T15:31:52.419Z</time>
      </trkpt>
      <trkpt lat="42.97557" lon="9.37633">
        <ele>266.6</ele>
        <time>2023-06-16T15:31:58.735Z</time>
      </trkpt>
      <trkpt lat="42.97603" lon="9.37592">
        <ele>262.3</ele>
        <time>2023-06-16T15:32:11.163Z</time>
      </trkpt>
      <trkpt lat="42.97613" lon="9.37554">
        <ele>262</ele>
        <time>2023-06-16T15:32:18.571Z</time>
      </trkpt>
      <trkpt lat="42.97585" lon="9.37504">
        <ele>263.2</ele>
        <time>2023-06-16T15:32:31.498Z</time>
      </trkpt>
      <trkpt lat="42.97579" lon="9.37415">
        <ele>258.4</ele>
        <time>2023-06-16T15:32:46.296Z</time>
      </trkpt>
      <trkpt lat="42.97669" lon="9.37206">
        <ele>245.8</ele>
        <time>2023-06-16T15:33:26.451Z</time>
      </trkpt>
      <trkpt lat="42.97662" lon="9.37137">
        <ele>244</ele>
        <time>2023-06-16T15:33:38.302Z</time>
      </trkpt>
      <trkpt lat="42.97686" lon="9.37112">
        <ele>242.4</ele>
        <time>2023-06-16T15:33:45.131Z</time>
      </trkpt>
      <trkpt lat="42.97728" lon="9.37104">
        <ele>239.1</ele>
        <time>2023-06-16T15:33:54.728Z</time>
      </trkpt>
      <trkpt lat="42.97811" lon="9.3705">
        <ele>232.7</ele>
        <time>2023-06-16T15:34:15.531Z</time>
      </trkpt>
      <trkpt lat="42.97845" lon="9.37058">
        <ele>229.9</ele>
        <time>2023-06-16T15:34:23.339Z</time>
      </trkpt>
      <trkpt lat="42.9787" lon="9.37045">
        <ele>227.2</ele>
        <time>2023-06-16T15:34:29.392Z</time>
      </trkpt>
      <trkpt lat="42.97908" lon="9.36988">
        <ele>225.6</ele>
        <time>2023-06-16T15:34:42.784Z</time>
      </trkpt>
      <trkpt lat="42.97903" lon="9.36934">
        <ele>224.2</ele>
        <time>2023-06-16T15:34:52.049Z</time>
      </trkpt>
      <trkpt lat="42.97926" lon="9.36858">
        <ele>221.8</ele>
        <time>2023-06-16T15:35:05.854Z</time>
      </trkpt>
      <trkpt lat="42.97945" lon="9.36852">
        <ele>220</ele>
        <time>2023-06-16T15:35:10.267Z</time>
      </trkpt>
      <trkpt lat="42.97976" lon="9.36875">
        <ele>214.9</ele>
        <time>2023-06-16T15:35:18.250Z</time>
      </trkpt>
      <trkpt lat="42.9805" lon="9.36858">
        <ele>213</ele>
        <time>2023-06-16T15:35:36.224Z</time>
      </trkpt>
      <trkpt lat="42.98105" lon="9.36938">
        <ele>207.1</ele>
        <time>2023-06-16T15:35:54.400Z</time>
      </trkpt>
      <trkpt lat="42.98221" lon="9.37034">
        <ele>199.8</ele>
        <time>2023-06-16T15:36:25.088Z</time>
      </trkpt>
      <trkpt lat="42.98245" lon="9.37127">
        <ele>195</ele>
        <time>2023-06-16T15:36:41.415Z</time>
      </trkpt>
      <trkpt lat="42.98296" lon="9.37215">
        <ele>190.8</ele>
        <time>2023-06-16T15:37:00.002Z</time>
      </trkpt>
      <trkpt lat="42.9832" lon="9.37215">
        <ele>190.1</ele>
        <time>2023-06-16T15:37:05.685Z</time>
      </trkpt>
      <trkpt lat="42.98406" lon="9.37146">
        <ele>187.3</ele>
        <time>2023-06-16T15:37:29.376Z</time>
      </trkpt>
      <trkpt lat="42.98458" lon="9.37276">
        <ele>174.9</ele>
        <time>2023-06-16T15:37:53.905Z</time>
      </trkpt>
      <trkpt lat="42.98546" lon="9.37365">
        <ele>167.4</ele>
        <time>2023-06-16T15:38:18.678Z</time>
      </trkpt>
      <trkpt lat="42.98584" lon="9.37369">
        <ele>165.9</ele>
        <time>2023-06-16T15:38:27.436Z</time>
      </trkpt>
      <trkpt lat="42.98627" lon="9.37353">
        <ele>162.8</ele>
        <time>2023-06-16T15:38:37.521Z</time>
      </trkpt>
      <trkpt lat="42.98666" lon="9.37296">
        <ele>161.5</ele>
        <time>2023-06-16T15:38:51.302Z</time>
      </trkpt>
      <trkpt lat="42.98686" lon="9.3729">
        <ele>161.4</ele>
        <time>2023-06-16T15:38:56.519Z</time>
      </trkpt>
      <trkpt lat="42.98769" lon="9.37504">
        <ele>147.3</ele>
        <time>2023-06-16T15:39:36.617Z</time>
      </trkpt>
      <trkpt lat="42.98818" lon="9.37577">
        <ele>143</ele>
        <time>2023-06-16T15:39:53.019Z</time>
      </trkpt>
      <trkpt lat="42.98882" lon="9.37615">
        <ele>139</ele>
        <time>2023-06-16T15:40:08.809Z</time>
      </trkpt>
      <trkpt lat="42.99093" lon="9.37815">
        <ele>123.7</ele>
        <time>2023-06-16T15:41:06.915Z</time>
      </trkpt>
      <trkpt lat="42.99256" lon="9.37887">
        <ele>112.8</ele>
        <time>2023-06-16T15:41:45.681Z</time>
      </trkpt>
      <trkpt lat="42.99291" lon="9.37878">
        <ele>112.6</ele>
        <time>2023-06-16T15:41:54.735Z</time>
      </trkpt>
      <trkpt lat="42.99578" lon="9.38036">
        <ele>93</ele>
        <time>2023-06-16T15:43:04.753Z</time>
      </trkpt>
      <trkpt lat="42.99654" lon="9.38103">
        <ele>86.6</ele>
        <time>2023-06-16T15:43:25.218Z</time>
      </trkpt>
      <trkpt lat="42.99683" lon="9.38086">
        <ele>84.9</ele>
        <time>2023-06-16T15:43:32.359Z</time>
      </trkpt>
      <trkpt lat="42.99706" lon="9.38027">
        <ele>84.4</ele>
        <time>2023-06-16T15:43:44.617Z</time>
      </trkpt>
      <trkpt lat="42.99804" lon="9.37958">
        <ele>75.9</ele>
        <time>2023-06-16T15:44:09.563Z</time>
      </trkpt>
      <trkpt lat="42.99915" lon="9.3808">
        <ele>66.7</ele>
        <time>2023-06-16T15:44:41.793Z</time>
      </trkpt>
      <trkpt lat="43.00015" lon="9.38113">
        <ele>60.5</ele>
        <time>2023-06-16T15:45:05.073Z</time>
      </trkpt>
      <trkpt lat="43.00066" lon="9.38149">
        <ele>57.7</ele>
        <time>2023-06-16T15:45:18.062Z</time>
      </trkpt>
      <trkpt lat="43.00174" lon="9.38284">
        <ele>47.6</ele>
        <time>2023-06-16T15:45:51.178Z</time>
      </trkpt>
      <trkpt lat="43.00206" lon="9.38299">
        <ele>47.3</ele>
        <time>2023-06-16T15:45:59.693Z</time>
      </trkpt>
      <trkpt lat="43.00306" lon="9.38417">
        <ele>37.9</ele>
        <time>2023-06-16T15:46:29.585Z</time>
      </trkpt>
      <trkpt lat="43.00356" lon="9.3843">
        <ele>35.8</ele>
        <time>2023-06-16T15:46:41.215Z</time>
      </trkpt>
      <trkpt lat="43.00396" lon="9.3851">
        <ele>29.4</ele>
        <time>2023-06-16T15:46:57.254Z</time>
      </trkpt>
      <trkpt lat="43.0047" lon="9.38488">
        <ele>25.6</ele>
        <time>2023-06-16T15:47:14.392Z</time>
      </trkpt>
      <trkpt lat="43.00455" lon="9.38514">
        <ele>24.7</ele>
        <time>2023-06-16T15:47:19.994Z</time>
      </trkpt>
      <trkpt lat="43.00409" lon="9.38542">
        <ele>24.4</ele>
        <time>2023-06-16T15:47:32.781Z</time>
      </trkpt>
      <trkpt lat="43.00317" lon="9.38524">
        <ele>20.5</ele>
        <time>2023-06-16T15:47:53.974Z</time>
      </trkpt>
      <trkpt lat="43.00177" lon="9.38585">
        <ele>11.5</ele>
        <time>2023-06-16T15:48:27.227Z</time>
      </trkpt>
      <trkpt lat="43.00147" lon="9.38631">
        <ele>9.8</ele>
        <time>2023-06-16T15:48:37.635Z</time>
      </trkpt>
      <trkpt lat="43.00139" lon="9.38807">
        <ele>13.1</ele>
        <time>2023-06-16T15:49:13.769Z</time>
      </trkpt>
      <trkpt lat="43.00294" lon="9.38936">
        <ele>21.4</ele>
        <time>2023-06-16T15:50:08.018Z</time>
      </trkpt>
      <trkpt lat="43.00355" lon="9.38963">
        <ele>23.9</ele>
        <time>2023-06-16T15:50:26.771Z</time>
      </trkpt>
      <trkpt lat="43.00415" lon="9.39021">
        <ele>25.5</ele>
        <time>2023-06-16T15:50:47.111Z</time>
      </trkpt>
      <trkpt lat="43.00418" lon="9.39099">
        <ele>26.9</ele>
        <time>2023-06-16T15:51:03.061Z</time>
      </trkpt>
      <trkpt lat="43.00523" lon="9.39222">
        <ele>30.5</ele>
        <time>2023-06-16T15:51:41.856Z</time>
      </trkpt>
      <trkpt lat="43.00514" lon="9.39321">
        <ele>33.5</ele>
        <time>2023-06-16T15:52:03.342Z</time>
      </trkpt>
      <trkpt lat="43.00525" lon="9.39398">
        <ele>31.8</ele>
        <time>2023-06-16T15:52:16.910Z</time>
      </trkpt>
      <trkpt lat="43.00495" lon="9.39535">
        <ele>24.4</ele>
        <time>2023-06-16T15:52:40.578Z</time>
      </trkpt>
      <trkpt lat="43.00487" lon="9.39663">
        <ele>23.7</ele>
        <time>2023-06-16T15:53:04.327Z</time>
      </trkpt>
      <trkpt lat="43.00543" lon="9.39807">
        <ele>27.9</ele>
        <time>2023-06-16T15:53:38.790Z</time>
      </trkpt>
      <trkpt lat="43.00567" lon="9.39822">
        <ele>27.4</ele>
        <time>2023-06-16T15:53:45.233Z</time>
      </trkpt>
      <trkpt lat="43.00608" lon="9.39816">
        <ele>26.3</ele>
        <time>2023-06-16T15:53:55.070Z</time>
      </trkpt>
      <trkpt lat="43.00681" lon="9.39882">
        <ele>21.6</ele>
        <time>2023-06-16T15:54:14.875Z</time>
      </trkpt>
      <trkpt lat="43.00714" lon="9.39942">
        <ele>18.9</ele>
        <time>2023-06-16T15:54:27.299Z</time>
      </trkpt>
      <trkpt lat="43.00746" lon="9.39946">
        <ele>16.4</ele>
        <time>2023-06-16T15:54:34.571Z</time>
      </trkpt>
      <trkpt lat="43.00764" lon="9.40063">
        <ele>11.7</ele>
        <time>2023-06-16T15:54:54.358Z</time>
      </trkpt>
      <trkpt lat="43.00741" lon="9.40146">
        <ele>7.3</ele>
        <time>2023-06-16T15:55:09.047Z</time>
      </trkpt>
      <trkpt lat="43.00687" lon="9.40159">
        <ele>5.5</ele>
        <time>2023-06-16T15:55:21.891Z</time>
      </trkpt>
      <trkpt lat="43.0064" lon="9.40144">
        <ele>3.9</ele>
        <time>2023-06-16T15:55:33.186Z</time>
      </trkpt>
      <trkpt lat="43.00545" lon="9.40322">
        <ele>8.9</ele>
        <time>2023-06-16T15:56:19.128Z</time>
      </trkpt>
      <trkpt lat="43.00452" lon="9.40297">
        <ele>13.7</ele>
        <time>2023-06-16T15:56:47.922Z</time>
      </trkpt>
      <trkpt lat="43.00386" lon="9.40298">
        <ele>16.3</ele>
        <time>2023-06-16T15:57:07.252Z</time>
      </trkpt>
      <trkpt lat="43.00405" lon="9.40283">
        <ele>17</ele>
        <time>2023-06-16T15:57:13.524Z</time>
      </trkpt>
      <trkpt lat="43.00386" lon="9.40298">
        <ele>16.3</ele>
        <time>2023-06-16T15:57:18.678Z</time>
      </trkpt>
      <trkpt lat="43.00326" lon="9.40219">
        <ele>18.1</ele>
        <time>2023-06-16T15:57:41.723Z</time>
      </trkpt>
      <trkpt lat="43.00296" lon="9.40118">
        <ele>21.4</ele>
        <time>2023-06-16T15:58:05.223Z</time>
      </trkpt>
      <trkpt lat="43.00274" lon="9.40133">
        <ele>21.8</ele>
        <time>2023-06-16T15:58:11.911Z</time>
      </trkpt>
      <trkpt lat="43.00249" lon="9.40188">
        <ele>22.4</ele>
        <time>2023-06-16T15:58:24.651Z</time>
      </trkpt>
      <trkpt lat="43.00144" lon="9.4014">
        <ele>25</ele>
        <time>2023-06-16T15:58:55.465Z</time>
      </trkpt>
      <trkpt lat="43.00104" lon="9.39989">
        <ele>28.9</ele>
        <time>2023-06-16T15:59:29.184Z</time>
      </trkpt>
      <trkpt lat="42.99986" lon="9.3995">
        <ele>32.9</ele>
        <time>2023-06-16T16:00:04.008Z</time>
      </trkpt>
      <trkpt lat="42.99956" lon="9.39965">
        <ele>33.7</ele>
        <time>2023-06-16T16:00:12.942Z</time>
      </trkpt>
      <trkpt lat="42.99926" lon="9.39955">
        <ele>33.7</ele>
        <time>2023-06-16T16:00:20.929Z</time>
      </trkpt>
      <trkpt lat="42.99885" lon="9.39899">
        <ele>38.2</ele>
        <time>2023-06-16T16:00:40.194Z</time>
      </trkpt>
      <trkpt lat="42.99869" lon="9.39898">
        <ele>38.1</ele>
        <time>2023-06-16T16:00:44.258Z</time>
      </trkpt>
      <trkpt lat="42.9986" lon="9.39921">
        <ele>37.8</ele>
        <time>2023-06-16T16:00:48.961Z</time>
      </trkpt>
      <trkpt lat="42.99801" lon="9.39939">
        <ele>39.6</ele>
        <time>2023-06-16T16:01:06.127Z</time>
      </trkpt>
      <trkpt lat="42.99665" lon="9.39839">
        <ele>45</ele>
        <time>2023-06-16T16:01:50.710Z</time>
      </trkpt>
      <trkpt lat="42.99464" lon="9.3989">
        <ele>54.6</ele>
        <time>2023-06-16T16:02:52.072Z</time>
      </trkpt>
      <trkpt lat="42.99413" lon="9.39881">
        <ele>59.1</ele>
        <time>2023-06-16T16:03:09.751Z</time>
      </trkpt>
      <trkpt lat="42.99338" lon="9.39919">
        <ele>63.7</ele>
        <time>2023-06-16T16:03:34.606Z</time>
      </trkpt>
      <trkpt lat="42.99248" lon="9.39933">
        <ele>69.9</ele>
        <time>2023-06-16T16:04:03.798Z</time>
      </trkpt>
      <trkpt lat="42.99222" lon="9.39975">
        <ele>71.1</ele>
        <time>2023-06-16T16:04:15.227Z</time>
      </trkpt>
      <trkpt lat="42.99212" lon="9.40035">
        <ele>73.7</ele>
        <time>2023-06-16T16:04:29.226Z</time>
      </trkpt>
      <trkpt lat="42.99172" lon="9.40113">
        <ele>77.5</ele>
        <time>2023-06-16T16:04:50.667Z</time>
      </trkpt>
      <trkpt lat="42.99122" lon="9.4016">
        <ele>81</ele>
        <time>2023-06-16T16:05:09.533Z</time>
      </trkpt>
      <trkpt lat="42.98954" lon="9.40204">
        <ele>90.5</ele>
        <time>2023-06-16T16:06:02.342Z</time>
      </trkpt>
      <trkpt lat="42.9891" lon="9.40185">
        <ele>95.1</ele>
        <time>2023-06-16T16:06:18.889Z</time>
      </trkpt>
      <trkpt lat="42.98876" lon="9.40343">
        <ele>101.8</ele>
        <time>2023-06-16T16:06:56.092Z</time>
      </trkpt>
      <trkpt lat="42.98902" lon="9.40371">
        <ele>102.1</ele>
        <time>2023-06-16T16:07:04.896Z</time>
      </trkpt>
      <trkpt lat="42.98913" lon="9.40433">
        <ele>106.6</ele>
        <time>2023-06-16T16:07:21.442Z</time>
      </trkpt>
      <trkpt lat="42.98951" lon="9.4049">
        <ele>110.2</ele>
        <time>2023-06-16T16:07:39.343Z</time>
      </trkpt>
      <trkpt lat="42.98934" lon="9.40519">
        <ele>111.6</ele>
        <time>2023-06-16T16:07:47.625Z</time>
      </trkpt>
      <trkpt lat="42.98895" lon="9.40514">
        <ele>115.8</ele>
        <time>2023-06-16T16:08:02.048Z</time>
      </trkpt>
      <trkpt lat="42.98801" lon="9.40411">
        <ele>120.3</ele>
        <time>2023-06-16T16:08:37.097Z</time>
      </trkpt>
      <trkpt lat="42.98783" lon="9.40325">
        <ele>126</ele>
        <time>2023-06-16T16:08:59.563Z</time>
      </trkpt>
      <trkpt lat="42.98812" lon="9.40215">
        <ele>133</ele>
        <time>2023-06-16T16:09:28.405Z</time>
      </trkpt>
      <trkpt lat="42.98672" lon="9.39912">
        <ele>158.3</ele>
        <time>2023-06-16T16:11:01.382Z</time>
      </trkpt>
      <trkpt lat="42.98563" lon="9.39766">
        <ele>167.8</ele>
        <time>2023-06-16T16:11:49.554Z</time>
      </trkpt>
      <trkpt lat="42.98558" lon="9.39692">
        <ele>173.8</ele>
        <time>2023-06-16T16:12:09.794Z</time>
      </trkpt>
      <trkpt lat="42.98452" lon="9.39588">
        <ele>184.1</ele>
        <time>2023-06-16T16:12:53.359Z</time>
      </trkpt>
      <trkpt lat="42.98409" lon="9.39651">
        <ele>187.2</ele>
        <time>2023-06-16T16:13:12.416Z</time>
      </trkpt>
      <trkpt lat="42.98385" lon="9.39655">
        <ele>190.6</ele>
        <time>2023-06-16T16:13:22.453Z</time>
      </trkpt>
      <trkpt lat="42.9835" lon="9.39588">
        <ele>193.5</ele>
        <time>2023-06-16T16:13:40.602Z</time>
      </trkpt>
      <trkpt lat="42.983" lon="9.39576">
        <ele>191.6</ele>
        <time>2023-06-16T16:13:52.333Z</time>
      </trkpt>
      <trkpt lat="42.98235" lon="9.39527">
        <ele>190.1</ele>
        <time>2023-06-16T16:14:10.388Z</time>
      </trkpt>
      <trkpt lat="42.98179" lon="9.3945">
        <ele>187.4</ele>
        <time>2023-06-16T16:14:28.931Z</time>
      </trkpt>
      <trkpt lat="42.9808" lon="9.39407">
        <ele>188.7</ele>
        <time>2023-06-16T16:14:56.861Z</time>
      </trkpt>
      <trkpt lat="42.97987" lon="9.39388">
        <ele>187.3</ele>
        <time>2023-06-16T16:15:20.102Z</time>
      </trkpt>
      <trkpt lat="42.97924" lon="9.39392">
        <ele>189.9</ele>
        <time>2023-06-16T16:15:38.682Z</time>
      </trkpt>
      <trkpt lat="42.97909" lon="9.39353">
        <ele>187.1</ele>
        <time>2023-06-16T16:15:45.977Z</time>
      </trkpt>
      <trkpt lat="42.97837" lon="9.39269">
        <ele>188.2</ele>
        <time>2023-06-16T16:16:11.359Z</time>
      </trkpt>
      <trkpt lat="42.9766" lon="9.39169">
        <ele>188.8</ele>
        <time>2023-06-16T16:17:01.375Z</time>
      </trkpt>
      <trkpt lat="42.97507" lon="9.39048">
        <ele>194</ele>
        <time>2023-06-16T16:17:51.511Z</time>
      </trkpt>
      <trkpt lat="42.97473" lon="9.3904">
        <ele>198.4</ele>
        <time>2023-06-16T16:18:05.167Z</time>
      </trkpt>
      <trkpt lat="42.97462" lon="9.3902">
        <ele>199.4</ele>
        <time>2023-06-16T16:18:10.802Z</time>
      </trkpt>
      <trkpt lat="42.97583" lon="9.38968">
        <ele>201.2</ele>
        <time>2023-06-16T16:18:45.086Z</time>
      </trkpt>
      <trkpt lat="42.97539" lon="9.3886">
        <ele>209.9</ele>
        <time>2023-06-16T16:19:17.128Z</time>
      </trkpt>
      <trkpt lat="42.97596" lon="9.38802">
        <ele>211.1</ele>
        <time>2023-06-16T16:19:36.498Z</time>
      </trkpt>
      <trkpt lat="42.97611" lon="9.38698">
        <ele>215.8</ele>
        <time>2023-06-16T16:20:00.846Z</time>
      </trkpt>
      <trkpt lat="42.9765" lon="9.38654">
        <ele>220.9</ele>
        <time>2023-06-16T16:20:19.055Z</time>
      </trkpt>
      <trkpt lat="42.97639" lon="9.38645">
        <ele>225</ele>
        <time>2023-06-16T16:20:29.938Z</time>
      </trkpt>
      <trkpt lat="42.9759" lon="9.38688">
        <ele>225.6</ele>
        <time>2023-06-16T16:20:45.487Z</time>
      </trkpt>
      <trkpt lat="42.97582" lon="9.38756">
        <ele>224.8</ele>
        <time>2023-06-16T16:20:57.904Z</time>
      </trkpt>
      <trkpt lat="42.97486" lon="9.38814">
        <ele>233.2</ele>
        <time>2023-06-16T16:21:33.080Z</time>
      </trkpt>
      <trkpt lat="42.9745" lon="9.38894">
        <ele>235.5</ele>
        <time>2023-06-16T16:21:52.824Z</time>
      </trkpt>
      <trkpt lat="42.97279" lon="9.38889">
        <ele>246.9</ele>
        <time>2023-06-16T16:22:47.615Z</time>
      </trkpt>
      <trkpt lat="42.97244" lon="9.3891">
        <ele>246</ele>
        <time>2023-06-16T16:22:56.819Z</time>
      </trkpt>
      <trkpt lat="42.97222" lon="9.38903">
        <ele>249.5</ele>
        <time>2023-06-16T16:23:06.706Z</time>
      </trkpt>
      <trkpt lat="42.97234" lon="9.38877">
        <ele>254.1</ele>
        <time>2023-06-16T16:23:18.610Z</time>
      </trkpt>
      <trkpt lat="42.97357" lon="9.38842">
        <ele>255.9</ele>
        <time>2023-06-16T16:23:52.584Z</time>
      </trkpt>
      <trkpt lat="42.97459" lon="9.38672">
        <ele>268.2</ele>
        <time>2023-06-16T16:24:45.843Z</time>
      </trkpt>
      <trkpt lat="42.97487" lon="9.38598">
        <ele>275.5</ele>
        <time>2023-06-16T16:25:09.307Z</time>
      </trkpt>
      <trkpt lat="42.97564" lon="9.38538">
        <ele>280.4</ele>
        <time>2023-06-16T16:25:36.648Z</time>
      </trkpt>
      <trkpt lat="42.97589" lon="9.38547">
        <ele>276.8</ele>
        <time>2023-06-16T16:25:42.499Z</time>
      </trkpt>
      <trkpt lat="42.97703" lon="9.3848">
        <ele>283.7</ele>
        <time>2023-06-16T16:26:20.818Z</time>
      </trkpt>
      <trkpt lat="42.97758" lon="9.38389">
        <ele>289.4</ele>
        <time>2023-06-16T16:26:48.422Z</time>
      </trkpt>
      <trkpt lat="42.97722" lon="9.38357">
        <ele>294.8</ele>
        <time>2023-06-16T16:27:05.311Z</time>
      </trkpt>
      <trkpt lat="42.97681" lon="9.38202">
        <ele>302.1</ele>
        <time>2023-06-16T16:27:43.160Z</time>
      </trkpt>
      <trkpt lat="42.97684" lon="9.38292">
        <ele>307.3</ele>
        <time>2023-06-16T16:28:05.165Z</time>
      </trkpt>
      <trkpt lat="42.97644" lon="9.38138">
        <ele>316.1</ele>
        <time>2023-06-16T16:28:44.370Z</time>
      </trkpt>
      <trkpt lat="42.9766" lon="9.3841">
        <ele>314.1</ele>
        <time>2023-06-16T16:29:34.448Z</time>
      </trkpt>
      <trkpt lat="42.97607" lon="9.38473">
        <ele>312.6</ele>
        <time>2023-06-16T16:29:51.473Z</time>
      </trkpt>
      <trkpt lat="42.97566" lon="9.38466">
        <ele>314.7</ele>
        <time>2023-06-16T16:30:04.033Z</time>
      </trkpt>
      <trkpt lat="42.97503" lon="9.38484">
        <ele>312.3</ele>
        <time>2023-06-16T16:30:18.913Z</time>
      </trkpt>
      <trkpt lat="42.97372" lon="9.38586">
        <ele>312</ele>
        <time>2023-06-16T16:30:57.669Z</time>
      </trkpt>
      <trkpt lat="42.97239" lon="9.38644">
        <ele>311.4</ele>
        <time>2023-06-16T16:31:33.304Z</time>
      </trkpt>
      <trkpt lat="42.97127" lon="9.38636">
        <ele>312.1</ele>
        <time>2023-06-16T16:32:02.876Z</time>
      </trkpt>
      <trkpt lat="42.97101" lon="9.38648">
        <ele>313.7</ele>
        <time>2023-06-16T16:32:11.426Z</time>
      </trkpt>
      <trkpt lat="42.97081" lon="9.38703">
        <ele>310.2</ele>
        <time>2023-06-16T16:32:21.596Z</time>
      </trkpt>
      <trkpt lat="42.96966" lon="9.38764">
        <ele>311</ele>
        <time>2023-06-16T16:32:54.147Z</time>
      </trkpt>
      <trkpt lat="42.96979" lon="9.38911">
        <ele>306</ele>
        <time>2023-06-16T16:33:18.666Z</time>
      </trkpt>
      <trkpt lat="42.9697" lon="9.39041">
        <ele>304.2</ele>
        <time>2023-06-16T16:33:42.002Z</time>
      </trkpt>
      <trkpt lat="42.96912" lon="9.39078">
        <ele>303.2</ele>
        <time>2023-06-16T16:33:57.787Z</time>
      </trkpt>
      <trkpt lat="42.96849" lon="9.39167">
        <ele>296.3</ele>
        <time>2023-06-16T16:34:18.292Z</time>
      </trkpt>
      <trkpt lat="42.96748" lon="9.3922">
        <ele>293.1</ele>
        <time>2023-06-16T16:34:43.881Z</time>
      </trkpt>
      <trkpt lat="42.96714" lon="9.39202">
        <ele>290.3</ele>
        <time>2023-06-16T16:34:52.133Z</time>
      </trkpt>
      <trkpt lat="42.96682" lon="9.39116">
        <ele>293.1</ele>
        <time>2023-06-16T16:35:12.827Z</time>
      </trkpt>
      <trkpt lat="42.96651" lon="9.39097">
        <ele>292.5</ele>
        <time>2023-06-16T16:35:21.154Z</time>
      </trkpt>
      <trkpt lat="42.96587" lon="9.39204">
        <ele>283.2</ele>
        <time>2023-06-16T16:35:44.040Z</time>
      </trkpt>
      <trkpt lat="42.96485" lon="9.39156">
        <ele>280.1</ele>
        <time>2023-06-16T16:36:09.619Z</time>
      </trkpt>
      <trkpt lat="42.96296" lon="9.38998">
        <ele>276.9</ele>
        <time>2023-06-16T16:37:04.453Z</time>
      </trkpt>
      <trkpt lat="42.9622" lon="9.39022">
        <ele>270.6</ele>
        <time>2023-06-16T16:37:22.106Z</time>
      </trkpt>
      <trkpt lat="42.96181" lon="9.38993">
        <ele>268.8</ele>
        <time>2023-06-16T16:37:32.273Z</time>
      </trkpt>
      <trkpt lat="42.9613" lon="9.38914">
        <ele>269.2</ele>
        <time>2023-06-16T16:37:52.535Z</time>
      </trkpt>
      <trkpt lat="42.95963" lon="9.38951">
        <ele>261</ele>
        <time>2023-06-16T16:38:30.822Z</time>
      </trkpt>
      <trkpt lat="42.95786" lon="9.39015">
        <ele>254</ele>
        <time>2023-06-16T16:39:13.034Z</time>
      </trkpt>
      <trkpt lat="42.95778" lon="9.39036">
        <ele>255.4</ele>
        <time>2023-06-16T16:39:18.856Z</time>
      </trkpt>
      <trkpt lat="42.95856" lon="9.39169">
        <ele>262.4</ele>
        <time>2023-06-16T16:39:57.439Z</time>
      </trkpt>
      <trkpt lat="42.95997" lon="9.39225">
        <ele>257.5</ele>
        <time>2023-06-16T16:40:31.780Z</time>
      </trkpt>
      <trkpt lat="42.96119" lon="9.39382">
        <ele>255.4</ele>
        <time>2023-06-16T16:41:13.497Z</time>
      </trkpt>
      <trkpt lat="42.96116" lon="9.39416">
        <ele>257.9</ele>
        <time>2023-06-16T16:41:22.486Z</time>
      </trkpt>
      <trkpt lat="42.96049" lon="9.39471">
        <ele>258.8</ele>
        <time>2023-06-16T16:41:43.436Z</time>
      </trkpt>
      <trkpt lat="42.9604" lon="9.39594">
        <ele>258.8</ele>
        <time>2023-06-16T16:42:06.833Z</time>
      </trkpt>
      <trkpt lat="42.96056" lon="9.39638">
        <ele>256.5</ele>
        <time>2023-06-16T16:42:14.971Z</time>
      </trkpt>
      <trkpt lat="42.96039" lon="9.39692">
        <ele>257.7</ele>
        <time>2023-06-16T16:42:27.113Z</time>
      </trkpt>
      <trkpt lat="42.96078" lon="9.39866">
        <ele>256.7</ele>
        <time>2023-06-16T16:43:00.774Z</time>
      </trkpt>
      <trkpt lat="42.96078" lon="9.39961">
        <ele>258.6</ele>
        <time>2023-06-16T16:43:20.362Z</time>
      </trkpt>
      <trkpt lat="42.96092" lon="9.39995">
        <ele>257.5</ele>
        <time>2023-06-16T16:43:26.938Z</time>
      </trkpt>
      <trkpt lat="42.96149" lon="9.40041">
        <ele>255.4</ele>
        <time>2023-06-16T16:43:42.496Z</time>
      </trkpt>
      <trkpt lat="42.9623" lon="9.40276">
        <ele>256</ele>
        <time>2023-06-16T16:44:32.143Z</time>
      </trkpt>
      <trkpt lat="42.96263" lon="9.40329">
        <ele>251.4</ele>
        <time>2023-06-16T16:44:43.668Z</time>
      </trkpt>
      <trkpt lat="42.96258" lon="9.4039">
        <ele>258.1</ele>
        <time>2023-06-16T16:45:02.911Z</time>
      </trkpt>
      <trkpt lat="42.96328" lon="9.40415">
        <ele>254.2</ele>
        <time>2023-06-16T16:45:19.284Z</time>
      </trkpt>
      <trkpt lat="42.96364" lon="9.40447">
        <ele>253.9</ele>
        <time>2023-06-16T16:45:30.157Z</time>
      </trkpt>
      <trkpt lat="42.96407" lon="9.40522">
        <ele>254.2</ele>
        <time>2023-06-16T16:45:48.431Z</time>
      </trkpt>
      <trkpt lat="42.96527" lon="9.40831">
        <ele>254.9</ele>
        <time>2023-06-16T16:46:55.199Z</time>
      </trkpt>
      <trkpt lat="42.96671" lon="9.40919">
        <ele>249</ele>
        <time>2023-06-16T16:47:31.656Z</time>
      </trkpt>
      <trkpt lat="42.96738" lon="9.41089">
        <ele>251.1</ele>
        <time>2023-06-16T16:48:09.927Z</time>
      </trkpt>
      <trkpt lat="42.96745" lon="9.41153">
        <ele>250</ele>
        <time>2023-06-16T16:48:21.340Z</time>
      </trkpt>
      <trkpt lat="42.96706" lon="9.41235">
        <ele>255.1</ele>
        <time>2023-06-16T16:48:44.622Z</time>
      </trkpt>
      <trkpt lat="42.96764" lon="9.41267">
        <ele>249.4</ele>
        <time>2023-06-16T16:48:58.778Z</time>
      </trkpt>
      <trkpt lat="42.96819" lon="9.41328">
        <ele>248.9</ele>
        <time>2023-06-16T16:49:16.706Z</time>
      </trkpt>
      <trkpt lat="42.96836" lon="9.4139">
        <ele>245.1</ele>
        <time>2023-06-16T16:49:27.670Z</time>
      </trkpt>
      <trkpt lat="42.96793" lon="9.41515">
        <ele>240.9</ele>
        <time>2023-06-16T16:49:50.746Z</time>
      </trkpt>
      <trkpt lat="42.96821" lon="9.41678">
        <ele>234.9</ele>
        <time>2023-06-16T16:50:18.472Z</time>
      </trkpt>
      <trkpt lat="42.96848" lon="9.41728">
        <ele>228.9</ele>
        <time>2023-06-16T16:50:28.763Z</time>
      </trkpt>
      <trkpt lat="42.96858" lon="9.41924">
        <ele>221.1</ele>
        <time>2023-06-16T16:51:01.298Z</time>
      </trkpt>
      <trkpt lat="42.96814" lon="9.41993">
        <ele>218.2</ele>
        <time>2023-06-16T16:51:16.511Z</time>
      </trkpt>
      <trkpt lat="42.96803" lon="9.42086">
        <ele>213.8</ele>
        <time>2023-06-16T16:51:32.112Z</time>
      </trkpt>
      <trkpt lat="42.96733" lon="9.42159">
        <ele>209.4</ele>
        <time>2023-06-16T16:51:52.039Z</time>
      </trkpt>
      <trkpt lat="42.96745" lon="9.42218">
        <ele>205.6</ele>
        <time>2023-06-16T16:52:02.180Z</time>
      </trkpt>
      <trkpt lat="42.9673" lon="9.4232">
        <ele>201.1</ele>
        <time>2023-06-16T16:52:19.408Z</time>
      </trkpt>
      <trkpt lat="42.96706" lon="9.42355">
        <ele>200</ele>
        <time>2023-06-16T16:52:27.667Z</time>
      </trkpt>
      <trkpt lat="42.96697" lon="9.42422">
        <ele>195.3</ele>
        <time>2023-06-16T16:52:38.947Z</time>
      </trkpt>
      <trkpt lat="42.96661" lon="9.42458">
        <ele>192.4</ele>
        <time>2023-06-16T16:52:49.043Z</time>
      </trkpt>
      <trkpt lat="42.96616" lon="9.42434">
        <ele>191.6</ele>
        <time>2023-06-16T16:53:00.922Z</time>
      </trkpt>
      <trkpt lat="42.96524" lon="9.42433">
        <ele>185.7</ele>
        <time>2023-06-16T16:53:21.743Z</time>
      </trkpt>
      <trkpt lat="42.96486" lon="9.42386">
        <ele>184.3</ele>
        <time>2023-06-16T16:53:33.947Z</time>
      </trkpt>
      <trkpt lat="42.96467" lon="9.42392">
        <ele>181.6</ele>
        <time>2023-06-16T16:53:38.360Z</time>
      </trkpt>
      <trkpt lat="42.96426" lon="9.42475">
        <ele>174.6</ele>
        <time>2023-06-16T16:53:54.944Z</time>
      </trkpt>
      <trkpt lat="42.96367" lon="9.42452">
        <ele>172.8</ele>
        <time>2023-06-16T16:54:09.466Z</time>
      </trkpt>
      <trkpt lat="42.96306" lon="9.42372">
        <ele>167.8</ele>
        <time>2023-06-16T16:54:28.599Z</time>
      </trkpt>
      <trkpt lat="42.96286" lon="9.42383">
        <ele>170.1</ele>
        <time>2023-06-16T16:54:36.523Z</time>
      </trkpt>
      <trkpt lat="42.96264" lon="9.42515">
        <ele>160.1</ele>
        <time>2023-06-16T16:54:58.943Z</time>
      </trkpt>
      <trkpt lat="42.96217" lon="9.42519">
        <ele>157.5</ele>
        <time>2023-06-16T16:55:09.600Z</time>
      </trkpt>
      <trkpt lat="42.962" lon="9.42588">
        <ele>154.4</ele>
        <time>2023-06-16T16:55:21.658Z</time>
      </trkpt>
      <trkpt lat="42.96218" lon="9.42746">
        <ele>145.7</ele>
        <time>2023-06-16T16:55:48.140Z</time>
      </trkpt>
      <trkpt lat="42.96208" lon="9.42796">
        <ele>141.5</ele>
        <time>2023-06-16T16:55:56.724Z</time>
      </trkpt>
      <trkpt lat="42.96176" lon="9.42821">
        <ele>139.6</ele>
        <time>2023-06-16T16:56:05.066Z</time>
      </trkpt>
      <trkpt lat="42.95944" lon="9.42723">
        <ele>129.8</ele>
        <time>2023-06-16T16:57:00.704Z</time>
      </trkpt>
      <trkpt lat="42.9592" lon="9.42732">
        <ele>127.3</ele>
        <time>2023-06-16T16:57:06.336Z</time>
      </trkpt>
      <trkpt lat="42.95855" lon="9.42802">
        <ele>122.2</ele>
        <time>2023-06-16T16:57:25.066Z</time>
      </trkpt>
      <trkpt lat="42.95837" lon="9.42801">
        <ele>120.9</ele>
        <time>2023-06-16T16:57:29.143Z</time>
      </trkpt>
      <trkpt lat="42.95789" lon="9.42743">
        <ele>119.4</ele>
        <time>2023-06-16T16:57:44.579Z</time>
      </trkpt>
      <trkpt lat="42.95658" lon="9.42698">
        <ele>110.1</ele>
        <time>2023-06-16T16:58:15.148Z</time>
      </trkpt>
      <trkpt lat="42.95535" lon="9.42832">
        <ele>100.8</ele>
        <time>2023-06-16T16:58:50.749Z</time>
      </trkpt>
      <trkpt lat="42.95525" lon="9.42872">
        <ele>100.5</ele>
        <time>2023-06-16T16:58:58.516Z</time>
      </trkpt>
      <trkpt lat="42.95542" lon="9.42995">
        <ele>91.3</ele>
        <time>2023-06-16T16:59:19.249Z</time>
      </trkpt>
      <trkpt lat="42.95599" lon="9.43017">
        <ele>91.2</ele>
        <time>2023-06-16T16:59:34.489Z</time>
      </trkpt>
      <trkpt lat="42.95606" lon="9.43039">
        <ele>88.8</ele>
        <time>2023-06-16T16:59:38.462Z</time>
      </trkpt>
      <trkpt lat="42.95554" lon="9.43219">
        <ele>80.7</ele>
        <time>2023-06-16T17:00:10.514Z</time>
      </trkpt>
      <trkpt lat="42.95495" lon="9.4329">
        <ele>75.9</ele>
        <time>2023-06-16T17:00:28.307Z</time>
      </trkpt>
      <trkpt lat="42.95503" lon="9.4334">
        <ele>73.6</ele>
        <time>2023-06-16T17:00:36.784Z</time>
      </trkpt>
      <trkpt lat="42.9555" lon="9.43372">
        <ele>70.7</ele>
        <time>2023-06-16T17:00:48.668Z</time>
      </trkpt>
      <trkpt lat="42.95578" lon="9.43412">
        <ele>71.3</ele>
        <time>2023-06-16T17:00:59.639Z</time>
      </trkpt>
      <trkpt lat="42.95565" lon="9.43445">
        <ele>69.9</ele>
        <time>2023-06-16T17:01:05.846Z</time>
      </trkpt>
      <trkpt lat="42.95507" lon="9.43501">
        <ele>62.5</ele>
        <time>2023-06-16T17:01:21.919Z</time>
      </trkpt>
      <trkpt lat="42.95507" lon="9.43626">
        <ele>56.5</ele>
        <time>2023-06-16T17:01:42.623Z</time>
      </trkpt>
      <trkpt lat="42.95561" lon="9.43653">
        <ele>55.9</ele>
        <time>2023-06-16T17:01:57.028Z</time>
      </trkpt>
      <trkpt lat="42.95533" lon="9.43759">
        <ele>50.9</ele>
        <time>2023-06-16T17:02:15.693Z</time>
      </trkpt>
      <trkpt lat="42.95548" lon="9.43854">
        <ele>44.9</ele>
        <time>2023-06-16T17:02:31.790Z</time>
      </trkpt>
      <trkpt lat="42.95578" lon="9.43903">
        <ele>43.3</ele>
        <time>2023-06-16T17:02:42.698Z</time>
      </trkpt>
      <trkpt lat="42.95558" lon="9.4403">
        <ele>37.2</ele>
        <time>2023-06-16T17:03:04.215Z</time>
      </trkpt>
      <trkpt lat="42.95581" lon="9.44149">
        <ele>31.5</ele>
        <time>2023-06-16T17:03:24.600Z</time>
      </trkpt>
      <trkpt lat="42.95582" lon="9.44263">
        <ele>26.9</ele>
        <time>2023-06-16T17:03:43.484Z</time>
      </trkpt>
      <trkpt lat="42.95694" lon="9.44651">
        <ele>14.6</ele>
        <time>2023-06-16T17:04:53.437Z</time>
      </trkpt>
      <trkpt lat="42.9585" lon="9.45074">
        <ele>6.4</ele>
        <time>2023-06-16T17:06:16.888Z</time>
      </trkpt>
      <trkpt lat="42.95908" lon="9.45312">
        <ele>2</ele>
        <time>2023-06-16T17:07:01.040Z</time>
      </trkpt>
      <trkpt lat="42.95823" lon="9.45362">
        <ele>1</ele>
        <time>2023-06-16T17:07:24.197Z</time>
      </trkpt>
      <trkpt lat="42.95745" lon="9.45491">
        <ele>1.7</ele>
        <time>2023-06-16T17:07:56.435Z</time>
      </trkpt>
      <trkpt lat="42.95708" lon="9.45508">
        <ele>1.9</ele>
        <time>2023-06-16T17:08:06.692Z</time>
      </trkpt>
      <trkpt lat="42.95638" lon="9.45512">
        <ele>3.5</ele>
        <time>2023-06-16T17:08:26.152Z</time>
      </trkpt>
      <trkpt lat="42.95477" lon="9.45579">
        <ele>11.3</ele>
        <time>2023-06-16T17:09:16.567Z</time>
      </trkpt>
      <trkpt lat="42.95441" lon="9.4561">
        <ele>11.7</ele>
        <time>2023-06-16T17:09:27.898Z</time>
      </trkpt>
      <trkpt lat="42.95405" lon="9.45619">
        <ele>11.5</ele>
        <time>2023-06-16T17:09:37.207Z</time>
      </trkpt>
      <trkpt lat="42.95356" lon="9.45603">
        <ele>16.3</ele>
        <time>2023-06-16T17:09:54.998Z</time>
      </trkpt>
      <trkpt lat="42.95247" lon="9.45642">
        <ele>16.2</ele>
        <time>2023-06-16T17:10:24.061Z</time>
      </trkpt>
      <trkpt lat="42.95118" lon="9.45506">
        <ele>13</ele>
        <time>2023-06-16T17:11:03.760Z</time>
      </trkpt>
      <trkpt lat="42.95057" lon="9.4558">
        <ele>13.2</ele>
        <time>2023-06-16T17:11:25.019Z</time>
      </trkpt>
      <trkpt lat="42.95" lon="9.45584">
        <ele>13.9</ele>
        <time>2023-06-16T17:11:40.353Z</time>
      </trkpt>
      <trkpt lat="42.94918" lon="9.4563">
        <ele>15.2</ele>
        <time>2023-06-16T17:12:04.349Z</time>
      </trkpt>
      <trkpt lat="42.94881" lon="9.45738">
        <ele>13.2</ele>
        <time>2023-06-16T17:12:25.407Z</time>
      </trkpt>
      <trkpt lat="42.94805" lon="9.45825">
        <ele>15.5</ele>
        <time>2023-06-16T17:12:52.978Z</time>
      </trkpt>
      <trkpt lat="42.94738" lon="9.45938">
        <ele>19.6</ele>
        <time>2023-06-16T17:13:24.064Z</time>
      </trkpt>
      <trkpt lat="42.94674" lon="9.45992">
        <ele>19.7</ele>
        <time>2023-06-16T17:13:43.599Z</time>
      </trkpt>
      <trkpt lat="42.94644" lon="9.46059">
        <ele>15.8</ele>
        <time>2023-06-16T17:13:56.610Z</time>
      </trkpt>
      <trkpt lat="42.94597" lon="9.46082">
        <ele>17.6</ele>
        <time>2023-06-16T17:14:11.075Z</time>
      </trkpt>
      <trkpt lat="42.94533" lon="9.46151">
        <ele>16</ele>
        <time>2023-06-16T17:14:30.940Z</time>
      </trkpt>
      <trkpt lat="42.9451" lon="9.46216">
        <ele>14.8</ele>
        <time>2023-06-16T17:14:43.698Z</time>
      </trkpt>
      <trkpt lat="42.94483" lon="9.46238">
        <ele>15.4</ele>
        <time>2023-06-16T17:14:52.327Z</time>
      </trkpt>
      <trkpt lat="42.94411" lon="9.46193">
        <ele>10.5</ele>
        <time>2023-06-16T17:15:10.246Z</time>
      </trkpt>
      <trkpt lat="42.94374" lon="9.46148">
        <ele>10.1</ele>
        <time>2023-06-16T17:15:22.745Z</time>
      </trkpt>
      <trkpt lat="42.94336" lon="9.46161">
        <ele>9.2</ele>
        <time>2023-06-16T17:15:32.195Z</time>
      </trkpt>
      <trkpt lat="42.94259" lon="9.46464">
        <ele>21</ele>
        <time>2023-06-16T17:16:43.433Z</time>
      </trkpt>
      <trkpt lat="42.94226" lon="9.46488">
        <ele>22.2</ele>
        <time>2023-06-16T17:16:54.128Z</time>
      </trkpt>
      <trkpt lat="42.9416" lon="9.4647">
        <ele>21.9</ele>
        <time>2023-06-16T17:17:11.298Z</time>
      </trkpt>
      <trkpt lat="42.94119" lon="9.46478">
        <ele>24.5</ele>
        <time>2023-06-16T17:17:24.395Z</time>
      </trkpt>
      <trkpt lat="42.94027" lon="9.46571">
        <ele>29</ele>
        <time>2023-06-16T17:17:57.906Z</time>
      </trkpt>
      <trkpt lat="42.93968" lon="9.46589">
        <ele>28.3</ele>
        <time>2023-06-16T17:18:12.998Z</time>
      </trkpt>
      <trkpt lat="42.93885" lon="9.467">
        <ele>25.7</ele>
        <time>2023-06-16T17:18:41.066Z</time>
      </trkpt>
      <trkpt lat="42.93795" lon="9.46765">
        <ele>24.7</ele>
        <time>2023-06-16T17:19:06.618Z</time>
      </trkpt>
      <trkpt lat="42.93723" lon="9.46773">
        <ele>24.1</ele>
        <time>2023-06-16T17:19:24.832Z</time>
      </trkpt>
      <trkpt lat="42.93649" lon="9.4681">
        <ele>25.1</ele>
        <time>2023-06-16T17:19:46.032Z</time>
      </trkpt>
      <trkpt lat="42.93597" lon="9.46866">
        <ele>18.7</ele>
        <time>2023-06-16T17:20:01.017Z</time>
      </trkpt>
      <trkpt lat="42.93566" lon="9.46852">
        <ele>15.6</ele>
        <time>2023-06-16T17:20:08.406Z</time>
      </trkpt>
      <trkpt lat="42.93521" lon="9.46787">
        <ele>16</ele>
        <time>2023-06-16T17:20:25.669Z</time>
      </trkpt>
      <trkpt lat="42.9352" lon="9.46701">
        <ele>15.4</ele>
        <time>2023-06-16T17:20:41.487Z</time>
      </trkpt>
      <trkpt lat="42.93475" lon="9.46511">
        <ele>2.1</ele>
        <time>2023-06-16T17:21:14.574Z</time>
      </trkpt>
      <trkpt lat="42.93432" lon="9.46448">
        <ele>2.8</ele>
        <time>2023-06-16T17:21:31.455Z</time>
      </trkpt>
      <trkpt lat="42.93339" lon="9.46422">
        <ele>4.1</ele>
        <time>2023-06-16T17:21:57.073Z</time>
      </trkpt>
      <trkpt lat="42.93244" lon="9.46488">
        <ele>8.5</ele>
        <time>2023-06-16T17:22:28.479Z</time>
      </trkpt>
      <trkpt lat="42.93186" lon="9.46444">
        <ele>12.9</ele>
        <time>2023-06-16T17:22:49.709Z</time>
      </trkpt>
      <trkpt lat="42.93147" lon="9.46437">
        <ele>15.3</ele>
        <time>2023-06-16T17:23:02.075Z</time>
      </trkpt>
      <trkpt lat="42.93081" lon="9.46493">
        <ele>14.6</ele>
        <time>2023-06-16T17:23:21.624Z</time>
      </trkpt>
      <trkpt lat="42.93012" lon="9.46628">
        <ele>17.1</ele>
        <time>2023-06-16T17:23:54.885Z</time>
      </trkpt>
      <trkpt lat="42.92965" lon="9.46643">
        <ele>20.9</ele>
        <time>2023-06-16T17:24:10.989Z</time>
      </trkpt>
      <trkpt lat="42.92885" lon="9.467">
        <ele>19.3</ele>
        <time>2023-06-16T17:24:33.100Z</time>
      </trkpt>
      <trkpt lat="42.92768" lon="9.46693">
        <ele>17.9</ele>
        <time>2023-06-16T17:25:02.303Z</time>
      </trkpt>
      <trkpt lat="42.92665" lon="9.46621">
        <ele>13</ele>
        <time>2023-06-16T17:25:28.660Z</time>
      </trkpt>
      <trkpt lat="42.92629" lon="9.46638">
        <ele>9.3</ele>
        <time>2023-06-16T17:25:37.281Z</time>
      </trkpt>
      <trkpt lat="42.92574" lon="9.46794">
        <ele>12.4</ele>
        <time>2023-06-16T17:26:12.675Z</time>
      </trkpt>
      <trkpt lat="42.92515" lon="9.46911">
        <ele>13.6</ele>
        <time>2023-06-16T17:26:40.559Z</time>
      </trkpt>
      <trkpt lat="42.92491" lon="9.4705">
        <ele>13.7</ele>
        <time>2023-06-16T17:27:07.686Z</time>
      </trkpt>
      <trkpt lat="42.92456" lon="9.47107">
        <ele>14.6</ele>
        <time>2023-06-16T17:27:22.517Z</time>
      </trkpt>
      <trkpt lat="42.92411" lon="9.47143">
        <ele>14.8</ele>
        <time>2023-06-16T17:27:36.166Z</time>
      </trkpt>
      <trkpt lat="42.92366" lon="9.4714">
        <ele>14.1</ele>
        <time>2023-06-16T17:27:47.279Z</time>
      </trkpt>
      <trkpt lat="42.92306" lon="9.47079">
        <ele>13.5</ele>
        <time>2023-06-16T17:28:06.156Z</time>
      </trkpt>
      <trkpt lat="42.9224" lon="9.46946">
        <ele>8.8</ele>
        <time>2023-06-16T17:28:33.144Z</time>
      </trkpt>
      <trkpt lat="42.92191" lon="9.46905">
        <ele>7.8</ele>
        <time>2023-06-16T17:28:47.240Z</time>
      </trkpt>
      <trkpt lat="42.92152" lon="9.46916">
        <ele>8.6</ele>
        <time>2023-06-16T17:28:58.206Z</time>
      </trkpt>
      <trkpt lat="42.92115" lon="9.46967">
        <ele>10.4</ele>
        <time>2023-06-16T17:29:13.348Z</time>
      </trkpt>
      <trkpt lat="42.92062" lon="9.47098">
        <ele>13.8</ele>
        <time>2023-06-16T17:29:44.593Z</time>
      </trkpt>
      <trkpt lat="42.9201" lon="9.47153">
        <ele>16.4</ele>
        <time>2023-06-16T17:30:03.865Z</time>
      </trkpt>
      <trkpt lat="42.91977" lon="9.47142">
        <ele>17.7</ele>
        <time>2023-06-16T17:30:13.777Z</time>
      </trkpt>
      <trkpt lat="42.91882" lon="9.47034">
        <ele>19.9</ele>
        <time>2023-06-16T17:30:47.569Z</time>
      </trkpt>
      <trkpt lat="42.91423" lon="9.46996">
        <ele>19.6</ele>
        <time>2023-06-16T17:32:46.264Z</time>
      </trkpt>
      <trkpt lat="42.91246" lon="9.46947">
        <ele>22.9</ele>
        <time>2023-06-16T17:33:35.709Z</time>
      </trkpt>
      <trkpt lat="42.91195" lon="9.46967">
        <ele>22.9</ele>
        <time>2023-06-16T17:33:49.433Z</time>
      </trkpt>
      <trkpt lat="42.91116" lon="9.47108">
        <ele>24.2</ele>
        <time>2023-06-16T17:34:24.119Z</time>
      </trkpt>
      <trkpt lat="42.91022" lon="9.47153">
        <ele>27.3</ele>
        <time>2023-06-16T17:34:52.526Z</time>
      </trkpt>
      <trkpt lat="42.90991" lon="9.47143">
        <ele>28.9</ele>
        <time>2023-06-16T17:35:02.189Z</time>
      </trkpt>
      <trkpt lat="42.90938" lon="9.4699">
        <ele>19.4</ele>
        <time>2023-06-16T17:35:30.243Z</time>
      </trkpt>
      <trkpt lat="42.909" lon="9.46936">
        <ele>16.3</ele>
        <time>2023-06-16T17:35:42.656Z</time>
      </trkpt>
      <trkpt lat="42.90857" lon="9.46905">
        <ele>15.1</ele>
        <time>2023-06-16T17:35:54.326Z</time>
      </trkpt>
      <trkpt lat="42.90821" lon="9.46828">
        <ele>13.4</ele>
        <time>2023-06-16T17:36:10.349Z</time>
      </trkpt>
      <trkpt lat="42.90704" lon="9.4671">
        <ele>10.3</ele>
        <time>2023-06-16T17:36:45.612Z</time>
      </trkpt>
      <trkpt lat="42.90649" lon="9.46696">
        <ele>5.6</ele>
        <time>2023-06-16T17:36:58.273Z</time>
      </trkpt>
      <trkpt lat="42.90581" lon="9.46719">
        <ele>5</ele>
        <time>2023-06-16T17:37:15.924Z</time>
      </trkpt>
      <trkpt lat="42.90303" lon="9.4715">
        <ele>13.7</ele>
        <time>2023-06-16T17:39:11.969Z</time>
      </trkpt>
      <trkpt lat="42.90284" lon="9.47221">
        <ele>13.5</ele>
        <time>2023-06-16T17:39:26.132Z</time>
      </trkpt>
      <trkpt lat="42.90253" lon="9.47243">
        <ele>16.5</ele>
        <time>2023-06-16T17:39:38.077Z</time>
      </trkpt>
      <trkpt lat="42.90171" lon="9.47226">
        <ele>14</ele>
        <time>2023-06-16T17:39:57.661Z</time>
      </trkpt>
      <trkpt lat="42.90043" lon="9.47312">
        <ele>16.8</ele>
        <time>2023-06-16T17:40:36.886Z</time>
      </trkpt>
      <trkpt lat="42.89997" lon="9.47315">
        <ele>19.4</ele>
        <time>2023-06-16T17:40:51.147Z</time>
      </trkpt>
      <trkpt lat="42.89754" lon="9.47209">
        <ele>13.9</ele>
        <time>2023-06-16T17:41:52.944Z</time>
      </trkpt>
      <trkpt lat="42.89703" lon="9.47215">
        <ele>13.7</ele>
        <time>2023-06-16T17:42:06.026Z</time>
      </trkpt>
      <trkpt lat="42.89628" lon="9.47249">
        <ele>12.9</ele>
        <time>2023-06-16T17:42:25.842Z</time>
      </trkpt>
      <trkpt lat="42.89554" lon="9.47252">
        <ele>13.1</ele>
        <time>2023-06-16T17:42:45.150Z</time>
      </trkpt>
      <trkpt lat="42.89298" lon="9.47409">
        <ele>9.4</ele>
        <time>2023-06-16T17:43:54.874Z</time>
      </trkpt>
      <trkpt lat="42.88694" lon="9.4731">
        <ele>2.8</ele>
        <time>2023-06-16T17:46:27.080Z</time>
      </trkpt>
      <trkpt lat="42.88545" lon="9.47338">
        <ele>3.6</ele>
        <time>2023-06-16T17:47:06.625Z</time>
      </trkpt>
      <trkpt lat="42.88508" lon="9.47437">
        <ele>7.1</ele>
        <time>2023-06-16T17:47:30.752Z</time>
      </trkpt>
      <trkpt lat="42.88385" lon="9.4757">
        <ele>7.5</ele>
        <time>2023-06-16T17:48:11.660Z</time>
      </trkpt>
      <trkpt lat="42.88299" lon="9.47621">
        <ele>7.3</ele>
        <time>2023-06-16T17:48:35.753Z</time>
      </trkpt>
      <trkpt lat="42.88203" lon="9.47703">
        <ele>10</ele>
        <time>2023-06-16T17:49:07.310Z</time>
      </trkpt>
      <trkpt lat="42.88088" lon="9.47749">
        <ele>10</ele>
        <time>2023-06-16T17:49:38.305Z</time>
      </trkpt>
      <trkpt lat="42.88044" lon="9.47737">
        <ele>12.1</ele>
        <time>2023-06-16T17:49:51.766Z</time>
      </trkpt>
      <trkpt lat="42.87925" lon="9.47761">
        <ele>11.5</ele>
        <time>2023-06-16T17:50:22.406Z</time>
      </trkpt>
      <trkpt lat="42.87866" lon="9.47695">
        <ele>13.8</ele>
        <time>2023-06-16T17:50:44.094Z</time>
      </trkpt>
      <trkpt lat="42.87847" lon="9.47611">
        <ele>15.9</ele>
        <time>2023-06-16T17:51:02.552Z</time>
      </trkpt>
      <trkpt lat="42.87801" lon="9.47539">
        <ele>12.5</ele>
        <time>2023-06-16T17:51:18.394Z</time>
      </trkpt>
      <trkpt lat="42.87837" lon="9.47363">
        <ele>6.4</ele>
        <time>2023-06-16T17:51:48.697Z</time>
      </trkpt>
      <trkpt lat="42.8782" lon="9.47321">
        <ele>5</ele>
        <time>2023-06-16T17:51:56.766Z</time>
      </trkpt>
      <trkpt lat="42.87517" lon="9.47189">
        <ele>1.9</ele>
        <time>2023-06-16T17:53:16.613Z</time>
      </trkpt>
      <trkpt lat="42.87478" lon="9.47195">
        <ele>3.6</ele>
        <time>2023-06-16T17:53:28.254Z</time>
      </trkpt>
      <trkpt lat="42.87448" lon="9.4727">
        <ele>8.2</ele>
        <time>2023-06-16T17:53:48.777Z</time>
      </trkpt>
      <trkpt lat="42.87417" lon="9.47285">
        <ele>8.2</ele>
        <time>2023-06-16T17:53:57.284Z</time>
      </trkpt>
      <trkpt lat="42.8736" lon="9.47351">
        <ele>12.2</ele>
        <time>2023-06-16T17:54:20.210Z</time>
      </trkpt>
      <trkpt lat="42.87267" lon="9.47515">
        <ele>19.2</ele>
        <time>2023-06-16T17:55:05.691Z</time>
      </trkpt>
      <trkpt lat="42.87208" lon="9.47703">
        <ele>22</ele>
        <time>2023-06-16T17:55:46.778Z</time>
      </trkpt>
      <trkpt lat="42.87166" lon="9.47781">
        <ele>20.4</ele>
        <time>2023-06-16T17:56:03.910Z</time>
      </trkpt>
      <trkpt lat="42.87083" lon="9.47724">
        <ele>14.4</ele>
        <time>2023-06-16T17:56:24.939Z</time>
      </trkpt>
      <trkpt lat="42.8705" lon="9.47646">
        <ele>12.7</ele>
        <time>2023-06-16T17:56:40.729Z</time>
      </trkpt>
      <trkpt lat="42.87032" lon="9.47686">
        <ele>12.9</ele>
        <time>2023-06-16T17:56:49.788Z</time>
      </trkpt>
      <trkpt lat="42.87023" lon="9.47778">
        <ele>13.9</ele>
        <time>2023-06-16T17:57:08.204Z</time>
      </trkpt>
      <trkpt lat="42.8697" lon="9.47792">
        <ele>13.6</ele>
        <time>2023-06-16T17:57:21.930Z</time>
      </trkpt>
      <trkpt lat="42.86935" lon="9.47826">
        <ele>14.4</ele>
        <time>2023-06-16T17:57:33.706Z</time>
      </trkpt>
      <trkpt lat="42.8687" lon="9.47958">
        <ele>16.8</ele>
        <time>2023-06-16T17:58:05.849Z</time>
      </trkpt>
      <trkpt lat="42.86729" lon="9.48101">
        <ele>19</ele>
        <time>2023-06-16T17:58:53.089Z</time>
      </trkpt>
      <trkpt lat="42.8659" lon="9.48068">
        <ele>23.2</ele>
        <time>2023-06-16T17:59:33.150Z</time>
      </trkpt>
      <trkpt lat="42.86541" lon="9.48102">
        <ele>23.5</ele>
        <time>2023-06-16T17:59:47.610Z</time>
      </trkpt>
      <trkpt lat="42.86501" lon="9.48107">
        <ele>25.8</ele>
        <time>2023-06-16T18:00:00.082Z</time>
      </trkpt>
      <trkpt lat="42.86435" lon="9.48191">
        <ele>23.4</ele>
        <time>2023-06-16T18:00:21.620Z</time>
      </trkpt>
      <trkpt lat="42.86406" lon="9.48183">
        <ele>23.4</ele>
        <time>2023-06-16T18:00:29.272Z</time>
      </trkpt>
      <trkpt lat="42.86373" lon="9.48124">
        <ele>28.9</ele>
        <time>2023-06-16T18:00:48.877Z</time>
      </trkpt>
      <trkpt lat="42.86272" lon="9.4814">
        <ele>21.1</ele>
        <time>2023-06-16T18:01:11.888Z</time>
      </trkpt>
      <trkpt lat="42.86225" lon="9.48115">
        <ele>21.6</ele>
        <time>2023-06-16T18:01:25.342Z</time>
      </trkpt>
      <trkpt lat="42.86117" lon="9.48114">
        <ele>17.3</ele>
        <time>2023-06-16T18:01:50.127Z</time>
      </trkpt>
      <trkpt lat="42.86098" lon="9.48098">
        <ele>17</ele>
        <time>2023-06-16T18:01:55.669Z</time>
      </trkpt>
      <trkpt lat="42.86068" lon="9.47957">
        <ele>21.4</ele>
        <time>2023-06-16T18:02:27.340Z</time>
      </trkpt>
      <trkpt lat="42.86037" lon="9.47928">
        <ele>16.9</ele>
        <time>2023-06-16T18:02:35.847Z</time>
      </trkpt>
      <trkpt lat="42.86001" lon="9.47936">
        <ele>18.3</ele>
        <time>2023-06-16T18:02:46.494Z</time>
      </trkpt>
      <trkpt lat="42.85868" lon="9.48122">
        <ele>23.9</ele>
        <time>2023-06-16T18:03:40.514Z</time>
      </trkpt>
      <trkpt lat="42.85754" lon="9.48143">
        <ele>31.9</ele>
        <time>2023-06-16T18:04:17.723Z</time>
      </trkpt>
      <trkpt lat="42.8563" lon="9.48256">
        <ele>33.3</ele>
        <time>2023-06-16T18:04:57.429Z</time>
      </trkpt>
      <trkpt lat="42.8553" lon="9.48272">
        <ele>35.3</ele>
        <time>2023-06-16T18:05:25.134Z</time>
      </trkpt>
      <trkpt lat="42.85456" lon="9.48237">
        <ele>38.6</ele>
        <time>2023-06-16T18:05:48.276Z</time>
      </trkpt>
      <trkpt lat="42.85392" lon="9.48319">
        <ele>33.8</ele>
        <time>2023-06-16T18:06:08.147Z</time>
      </trkpt>
      <trkpt lat="42.85324" lon="9.48319">
        <ele>35.1</ele>
        <time>2023-06-16T18:06:26.814Z</time>
      </trkpt>
      <trkpt lat="42.8529" lon="9.48382">
        <ele>33.6</ele>
        <time>2023-06-16T18:06:40.517Z</time>
      </trkpt>
      <trkpt lat="42.85242" lon="9.48422">
        <ele>33.5</ele>
        <time>2023-06-16T18:06:54.986Z</time>
      </trkpt>
      <trkpt lat="42.85199" lon="9.485">
        <ele>29.3</ele>
        <time>2023-06-16T18:07:11.177Z</time>
      </trkpt>
      <trkpt lat="42.85158" lon="9.48508">
        <ele>29.7</ele>
        <time>2023-06-16T18:07:22.214Z</time>
      </trkpt>
      <trkpt lat="42.85118" lon="9.48477">
        <ele>31.6</ele>
        <time>2023-06-16T18:07:35.771Z</time>
      </trkpt>
      <trkpt lat="42.85084" lon="9.4838">
        <ele>29.7</ele>
        <time>2023-06-16T18:07:54.721Z</time>
      </trkpt>
      <trkpt lat="42.85084" lon="9.48329">
        <ele>30.2</ele>
        <time>2023-06-16T18:08:04.801Z</time>
      </trkpt>
      <trkpt lat="42.85065" lon="9.48293">
        <ele>31.3</ele>
        <time>2023-06-16T18:08:14.156Z</time>
      </trkpt>
      <trkpt lat="42.84986" lon="9.48294">
        <ele>29</ele>
        <time>2023-06-16T18:08:32.867Z</time>
      </trkpt>
      <trkpt lat="42.8491" lon="9.4822">
        <ele>27.9</ele>
        <time>2023-06-16T18:08:56.164Z</time>
      </trkpt>
      <trkpt lat="42.84854" lon="9.48212">
        <ele>29.8</ele>
        <time>2023-06-16T18:09:12.357Z</time>
      </trkpt>
      <trkpt lat="42.84815" lon="9.4819">
        <ele>28.5</ele>
        <time>2023-06-16T18:09:22.303Z</time>
      </trkpt>
      <trkpt lat="42.84716" lon="9.48196">
        <ele>27.2</ele>
        <time>2023-06-16T18:09:46.927Z</time>
      </trkpt>
      <trkpt lat="42.84677" lon="9.48264">
        <ele>25.2</ele>
        <time>2023-06-16T18:10:01.809Z</time>
      </trkpt>
      <trkpt lat="42.846" lon="9.48274">
        <ele>26.6</ele>
        <time>2023-06-16T18:10:22.974Z</time>
      </trkpt>
      <trkpt lat="42.84572" lon="9.48304">
        <ele>25</ele>
        <time>2023-06-16T18:10:31.032Z</time>
      </trkpt>
      <trkpt lat="42.84533" lon="9.48312">
        <ele>21.3</ele>
        <time>2023-06-16T18:10:39.957Z</time>
      </trkpt>
      <trkpt lat="42.84406" lon="9.48225">
        <ele>24.2</ele>
        <time>2023-06-16T18:11:19.129Z</time>
      </trkpt>
      <trkpt lat="42.84336" lon="9.48285">
        <ele>22.9</ele>
        <time>2023-06-16T18:11:39.512Z</time>
      </trkpt>
      <trkpt lat="42.8421" lon="9.48354">
        <ele>22.4</ele>
        <time>2023-06-16T18:12:14.234Z</time>
      </trkpt>
      <trkpt lat="42.84168" lon="9.48331">
        <ele>19.7</ele>
        <time>2023-06-16T18:12:24.476Z</time>
      </trkpt>
      <trkpt lat="42.84124" lon="9.48179">
        <ele>13.2</ele>
        <time>2023-06-16T18:12:51.593Z</time>
      </trkpt>
      <trkpt lat="42.84122" lon="9.48071">
        <ele>9.2</ele>
        <time>2023-06-16T18:13:09.521Z</time>
      </trkpt>
      <trkpt lat="42.84107" lon="9.48021">
        <ele>8.8</ele>
        <time>2023-06-16T18:13:19.454Z</time>
      </trkpt>
      <trkpt lat="42.84099" lon="9.47857">
        <ele>3.1</ele>
        <time>2023-06-16T18:13:46.728Z</time>
      </trkpt>
      <trkpt lat="42.84078" lon="9.47841">
        <ele>1.9</ele>
        <time>2023-06-16T18:13:52.172Z</time>
      </trkpt>
      <trkpt lat="42.83843" lon="9.47837">
        <ele>1.3</ele>
        <time>2023-06-16T18:14:52.482Z</time>
      </trkpt>
      <trkpt lat="42.83673" lon="9.479">
        <ele>1.1</ele>
        <time>2023-06-16T18:15:37.886Z</time>
      </trkpt>
      <trkpt lat="42.83548" lon="9.48021">
        <ele>6.5</ele>
        <time>2023-06-16T18:16:22.181Z</time>
      </trkpt>
      <trkpt lat="42.83622" lon="9.4825">
        <ele>7.9</ele>
        <time>2023-06-16T18:17:10.776Z</time>
      </trkpt>
      <trkpt lat="42.83608" lon="9.48293">
        <ele>6.9</ele>
        <time>2023-06-16T18:17:18.951Z</time>
      </trkpt>
      <trkpt lat="42.83551" lon="9.48334">
        <ele>9.3</ele>
        <time>2023-06-16T18:17:37.693Z</time>
      </trkpt>
      <trkpt lat="42.83466" lon="9.48447">
        <ele>14.1</ele>
        <time>2023-06-16T18:18:12.576Z</time>
      </trkpt>
      <trkpt lat="42.83398" lon="9.48511">
        <ele>13.2</ele>
        <time>2023-06-16T18:18:33.246Z</time>
      </trkpt>
      <trkpt lat="42.83259" lon="9.48562">
        <ele>10.7</ele>
        <time>2023-06-16T18:19:08.557Z</time>
      </trkpt>
      <trkpt lat="42.8319" lon="9.48528">
        <ele>8.5</ele>
        <time>2023-06-16T18:19:25.889Z</time>
      </trkpt>
      <trkpt lat="42.83141" lon="9.48441">
        <ele>7.5</ele>
        <time>2023-06-16T18:19:45.920Z</time>
      </trkpt>
      <trkpt lat="42.83094" lon="9.48437">
        <ele>8.7</ele>
        <time>2023-06-16T18:19:59.110Z</time>
      </trkpt>
      <trkpt lat="42.83026" lon="9.4859">
        <ele>13.9</ele>
        <time>2023-06-16T18:20:37.565Z</time>
      </trkpt>
      <trkpt lat="42.82982" lon="9.48603">
        <ele>16.5</ele>
        <time>2023-06-16T18:20:51.566Z</time>
      </trkpt>
      <trkpt lat="42.8293" lon="9.48557">
        <ele>18.9</ele>
        <time>2023-06-16T18:21:09.680Z</time>
      </trkpt>
      <trkpt lat="42.82833" lon="9.48593">
        <ele>24.6</ele>
        <time>2023-06-16T18:21:40.835Z</time>
      </trkpt>
      <trkpt lat="42.82772" lon="9.48594">
        <ele>29.1</ele>
        <time>2023-06-16T18:22:00.850Z</time>
      </trkpt>
      <trkpt lat="42.8268" lon="9.48674">
        <ele>20.7</ele>
        <time>2023-06-16T18:22:25.544Z</time>
      </trkpt>
      <trkpt lat="42.82613" lon="9.48666">
        <ele>20.4</ele>
        <time>2023-06-16T18:22:42.703Z</time>
      </trkpt>
      <trkpt lat="42.82536" lon="9.48555">
        <ele>17.6</ele>
        <time>2023-06-16T18:23:09.571Z</time>
      </trkpt>
      <trkpt lat="42.82509" lon="9.48538">
        <ele>15</ele>
        <time>2023-06-16T18:23:16.301Z</time>
      </trkpt>
      <trkpt lat="42.82443" lon="9.48592">
        <ele>19.8</ele>
        <time>2023-06-16T18:23:40.608Z</time>
      </trkpt>
      <trkpt lat="42.82303" lon="9.48658">
        <ele>30.6</ele>
        <time>2023-06-16T18:24:29.068Z</time>
      </trkpt>
      <trkpt lat="42.82202" lon="9.48633">
        <ele>34.5</ele>
        <time>2023-06-16T18:24:58.996Z</time>
      </trkpt>
      <trkpt lat="42.82001" lon="9.48638">
        <ele>34.4</ele>
        <time>2023-06-16T18:25:50.911Z</time>
      </trkpt>
      <trkpt lat="42.81854" lon="9.48707">
        <ele>33</ele>
        <time>2023-06-16T18:26:30.028Z</time>
      </trkpt>
      <trkpt lat="42.81784" lon="9.48794">
        <ele>27.3</ele>
        <time>2023-06-16T18:26:51.465Z</time>
      </trkpt>
      <trkpt lat="42.81692" lon="9.48864">
        <ele>21.7</ele>
        <time>2023-06-16T18:27:15.308Z</time>
      </trkpt>
      <trkpt lat="42.81565" lon="9.48865">
        <ele>24.7</ele>
        <time>2023-06-16T18:27:50.671Z</time>
      </trkpt>
      <trkpt lat="42.81442" lon="9.48985">
        <ele>21.4</ele>
        <time>2023-06-16T18:28:27.283Z</time>
      </trkpt>
      <trkpt lat="42.81349" lon="9.49001">
        <ele>18.1</ele>
        <time>2023-06-16T18:28:49.088Z</time>
      </trkpt>
      <trkpt lat="42.81316" lon="9.48955">
        <ele>16.2</ele>
        <time>2023-06-16T18:28:59.905Z</time>
      </trkpt>
      <trkpt lat="42.81283" lon="9.48943">
        <ele>20.2</ele>
        <time>2023-06-16T18:29:12.929Z</time>
      </trkpt>
      <trkpt lat="42.81229" lon="9.48981">
        <ele>7.9</ele>
        <time>2023-06-16T18:29:26.682Z</time>
      </trkpt>
      <trkpt lat="42.81189" lon="9.48945">
        <ele>6.6</ele>
        <time>2023-06-16T18:29:38.102Z</time>
      </trkpt>
      <trkpt lat="42.8084" lon="9.48852">
        <ele>4.6</ele>
        <time>2023-06-16T18:31:08.502Z</time>
      </trkpt>
      <trkpt lat="42.80817" lon="9.48861">
        <ele>6.2</ele>
        <time>2023-06-16T18:31:16.173Z</time>
      </trkpt>
      <trkpt lat="42.808" lon="9.49019">
        <ele>13.9</ele>
        <time>2023-06-16T18:31:53.586Z</time>
      </trkpt>
      <trkpt lat="42.8076" lon="9.4917">
        <ele>19.7</ele>
        <time>2023-06-16T18:32:29.203Z</time>
      </trkpt>
      <trkpt lat="42.8071" lon="9.49231">
        <ele>17.6</ele>
        <time>2023-06-16T18:32:44.994Z</time>
      </trkpt>
      <trkpt lat="42.80609" lon="9.49212">
        <ele>25.6</ele>
        <time>2023-06-16T18:33:18.981Z</time>
      </trkpt>
      <trkpt lat="42.80517" lon="9.49093">
        <ele>28.3</ele>
        <time>2023-06-16T18:33:54.037Z</time>
      </trkpt>
      <trkpt lat="42.80435" lon="9.49091">
        <ele>27.9</ele>
        <time>2023-06-16T18:34:14.934Z</time>
      </trkpt>
      <trkpt lat="42.80338" lon="9.4914">
        <ele>35.7</ele>
        <time>2023-06-16T18:34:49.062Z</time>
      </trkpt>
      <trkpt lat="42.80292" lon="9.49143">
        <ele>33.2</ele>
        <time>2023-06-16T18:34:59.484Z</time>
      </trkpt>
      <trkpt lat="42.80049" lon="9.48994">
        <ele>43.6</ele>
        <time>2023-06-16T18:36:17.430Z</time>
      </trkpt>
      <trkpt lat="42.79931" lon="9.49069">
        <ele>50.1</ele>
        <time>2023-06-16T18:36:56.891Z</time>
      </trkpt>
      <trkpt lat="42.79723" lon="9.49065">
        <ele>39.2</ele>
        <time>2023-06-16T18:37:43.968Z</time>
      </trkpt>
      <trkpt lat="42.79661" lon="9.49012">
        <ele>45.1</ele>
        <time>2023-06-16T18:38:08.544Z</time>
      </trkpt>
      <trkpt lat="42.79614" lon="9.49007">
        <ele>35.9</ele>
        <time>2023-06-16T18:38:19.213Z</time>
      </trkpt>
      <trkpt lat="42.79589" lon="9.48917">
        <ele>41</ele>
        <time>2023-06-16T18:38:42.261Z</time>
      </trkpt>
      <trkpt lat="42.79571" lon="9.48897">
        <ele>38.6</ele>
        <time>2023-06-16T18:38:47.516Z</time>
      </trkpt>
      <trkpt lat="42.79508" lon="9.48878">
        <ele>38.1</ele>
        <time>2023-06-16T18:39:03.813Z</time>
      </trkpt>
      <trkpt lat="42.79463" lon="9.48919">
        <ele>37.1</ele>
        <time>2023-06-16T18:39:17.048Z</time>
      </trkpt>
      <trkpt lat="42.79382" lon="9.48886">
        <ele>35.7</ele>
        <time>2023-06-16T18:39:37.838Z</time>
      </trkpt>
      <trkpt lat="42.79338" lon="9.48775">
        <ele>37.7</ele>
        <time>2023-06-16T18:40:03.452Z</time>
      </trkpt>
      <trkpt lat="42.79217" lon="9.48796">
        <ele>35.1</ele>
        <time>2023-06-16T18:40:33.022Z</time>
      </trkpt>
      <trkpt lat="42.79034" lon="9.48655">
        <ele>36.2</ele>
        <time>2023-06-16T18:41:28.280Z</time>
      </trkpt>
      <trkpt lat="42.78994" lon="9.48654">
        <ele>35.4</ele>
        <time>2023-06-16T18:41:38.017Z</time>
      </trkpt>
      <trkpt lat="42.789" lon="9.48617">
        <ele>39.5</ele>
        <time>2023-06-16T18:42:06.906Z</time>
      </trkpt>
      <trkpt lat="42.78838" lon="9.48574">
        <ele>40.6</ele>
        <time>2023-06-16T18:42:25.806Z</time>
      </trkpt>
      <trkpt lat="42.78823" lon="9.48437">
        <ele>45.1</ele>
        <time>2023-06-16T18:42:56.051Z</time>
      </trkpt>
      <trkpt lat="42.7884" lon="9.48379">
        <ele>43.1</ele>
        <time>2023-06-16T18:43:06.452Z</time>
      </trkpt>
      <trkpt lat="42.78822" lon="9.48343">
        <ele>44.5</ele>
        <time>2023-06-16T18:43:15.949Z</time>
      </trkpt>
      <trkpt lat="42.78759" lon="9.48334">
        <ele>45.8</ele>
        <time>2023-06-16T18:43:33.415Z</time>
      </trkpt>
      <trkpt lat="42.78729" lon="9.48357">
        <ele>44.7</ele>
        <time>2023-06-16T18:43:41.500Z</time>
      </trkpt>
      <trkpt lat="42.78665" lon="9.48322">
        <ele>46.1</ele>
        <time>2023-06-16T18:44:00.501Z</time>
      </trkpt>
      <trkpt lat="42.78597" lon="9.4836">
        <ele>43.7</ele>
        <time>2023-06-16T18:44:17.727Z</time>
      </trkpt>
      <trkpt lat="42.78545" lon="9.48351">
        <ele>40.4</ele>
        <time>2023-06-16T18:44:29.589Z</time>
      </trkpt>
      <trkpt lat="42.78485" lon="9.48253">
        <ele>40.4</ele>
        <time>2023-06-16T18:44:53.814Z</time>
      </trkpt>
      <trkpt lat="42.78432" lon="9.48269">
        <ele>37.1</ele>
        <time>2023-06-16T18:45:06.099Z</time>
      </trkpt>
      <trkpt lat="42.78371" lon="9.48231">
        <ele>35.7</ele>
        <time>2023-06-16T18:45:22.381Z</time>
      </trkpt>
      <trkpt lat="42.78328" lon="9.48252">
        <ele>33.5</ele>
        <time>2023-06-16T18:45:32.718Z</time>
      </trkpt>
      <trkpt lat="42.7829" lon="9.48251">
        <ele>32.5</ele>
        <time>2023-06-16T18:45:41.796Z</time>
      </trkpt>
      <trkpt lat="42.78206" lon="9.48152">
        <ele>30.8</ele>
        <time>2023-06-16T18:46:09.211Z</time>
      </trkpt>
      <trkpt lat="42.78124" lon="9.48112">
        <ele>25.7</ele>
        <time>2023-06-16T18:46:28.922Z</time>
      </trkpt>
      <trkpt lat="42.78107" lon="9.4792">
        <ele>23.3</ele>
        <time>2023-06-16T18:47:03.791Z</time>
      </trkpt>
      <trkpt lat="42.78044" lon="9.47854">
        <ele>19.8</ele>
        <time>2023-06-16T18:47:21.804Z</time>
      </trkpt>
      <trkpt lat="42.78036" lon="9.47819">
        <ele>19.8</ele>
        <time>2023-06-16T18:47:28.763Z</time>
      </trkpt>
      <trkpt lat="42.77999" lon="9.47792">
        <ele>17.2</ele>
        <time>2023-06-16T18:47:38.261Z</time>
      </trkpt>
      <trkpt lat="42.7794" lon="9.4786">
        <ele>15.5</ele>
        <time>2023-06-16T18:47:56.957Z</time>
      </trkpt>
      <trkpt lat="42.77865" lon="9.47887">
        <ele>13</ele>
        <time>2023-06-16T18:48:15.161Z</time>
      </trkpt>
      <trkpt lat="42.77771" lon="9.47813">
        <ele>10.6</ele>
        <time>2023-06-16T18:48:41.417Z</time>
      </trkpt>
      <trkpt lat="42.77667" lon="9.47756">
        <ele>6.2</ele>
        <time>2023-06-16T18:49:07.185Z</time>
      </trkpt>
      <trkpt lat="42.77654" lon="9.47659">
        <ele>6.8</ele>
        <time>2023-06-16T18:49:26.390Z</time>
      </trkpt>
      <trkpt lat="42.77635" lon="9.47634">
        <ele>7</ele>
        <time>2023-06-16T18:49:33.384Z</time>
      </trkpt>
      <trkpt lat="42.77582" lon="9.47632">
        <ele>8.3</ele>
        <time>2023-06-16T18:49:48.190Z</time>
      </trkpt>
      <trkpt lat="42.77402" lon="9.47493">
        <ele>11.5</ele>
        <time>2023-06-16T18:50:44.339Z</time>
      </trkpt>
      <trkpt lat="42.77248" lon="9.47311">
        <ele>18.5</ele>
        <time>2023-06-16T18:51:43.081Z</time>
      </trkpt>
      <trkpt lat="42.77174" lon="9.47262">
        <ele>17.9</ele>
        <time>2023-06-16T18:52:03.891Z</time>
      </trkpt>
      <trkpt lat="42.77145" lon="9.47144">
        <ele>21</ele>
        <time>2023-06-16T18:52:30.177Z</time>
      </trkpt>
      <trkpt lat="42.77126" lon="9.47122">
        <ele>22.7</ele>
        <time>2023-06-16T18:52:38.205Z</time>
      </trkpt>
      <trkpt lat="42.77041" lon="9.47165">
        <ele>21.4</ele>
        <time>2023-06-16T18:53:00.653Z</time>
      </trkpt>
      <trkpt lat="42.76871" lon="9.47056">
        <ele>28.6</ele>
        <time>2023-06-16T18:53:55.489Z</time>
      </trkpt>
      <trkpt lat="42.76828" lon="9.47055">
        <ele>26.5</ele>
        <time>2023-06-16T18:54:05.222Z</time>
      </trkpt>
      <trkpt lat="42.7679" lon="9.47024">
        <ele>24.8</ele>
        <time>2023-06-16T18:54:15.429Z</time>
      </trkpt>
      <trkpt lat="42.76785" lon="9.46946">
        <ele>29</ele>
        <time>2023-06-16T18:54:34.243Z</time>
      </trkpt>
      <trkpt lat="42.76742" lon="9.46899">
        <ele>30.3</ele>
        <time>2023-06-16T18:54:49.593Z</time>
      </trkpt>
      <trkpt lat="42.76635" lon="9.46855">
        <ele>29.8</ele>
        <time>2023-06-16T18:55:18.106Z</time>
      </trkpt>
      <trkpt lat="42.76558" lon="9.4688">
        <ele>26.4</ele>
        <time>2023-06-16T18:55:36.105Z</time>
      </trkpt>
      <trkpt lat="42.76443" lon="9.46758">
        <ele>21.3</ele>
        <time>2023-06-16T18:56:10.034Z</time>
      </trkpt>
      <trkpt lat="42.76419" lon="9.46748">
        <ele>22.5</ele>
        <time>2023-06-16T18:56:17.588Z</time>
      </trkpt>
      <trkpt lat="42.76351" lon="9.46757">
        <ele>17.5</ele>
        <time>2023-06-16T18:56:33.050Z</time>
      </trkpt>
      <trkpt lat="42.76265" lon="9.46729">
        <ele>14.5</ele>
        <time>2023-06-16T18:56:53.696Z</time>
      </trkpt>
      <trkpt lat="42.76239" lon="9.46667">
        <ele>13.4</ele>
        <time>2023-06-16T18:57:06.416Z</time>
      </trkpt>
      <trkpt lat="42.76218" lon="9.46656">
        <ele>14.9</ele>
        <time>2023-06-16T18:57:13.624Z</time>
      </trkpt>
      <trkpt lat="42.76161" lon="9.46695">
        <ele>13.5</ele>
        <time>2023-06-16T18:57:29.058Z</time>
      </trkpt>
      <trkpt lat="42.76056" lon="9.46636">
        <ele>12.3</ele>
        <time>2023-06-16T18:57:57.502Z</time>
      </trkpt>
      <trkpt lat="42.75979" lon="9.46645">
        <ele>10.2</ele>
        <time>2023-06-16T18:58:15.912Z</time>
      </trkpt>
      <trkpt lat="42.75878" lon="9.46612">
        <ele>7.65</ele>
        <time>2023-06-16T18:58:40.848Z</time>
      </trkpt>
      <trkpt lat="42.75834" lon="9.46555">
        <ele>5.5</ele>
        <time>2023-06-16T18:58:54.965Z</time>
      </trkpt>
      <trkpt lat="42.75709" lon="9.46513">
        <ele>2.8</ele>
        <time>2023-06-16T18:59:26.209Z</time>
      </trkpt>
      <trkpt lat="42.75659" lon="9.46532">
        <ele>11.1</ele>
        <time>2023-06-16T18:59:49.353Z</time>
      </trkpt>
      <trkpt lat="42.75612" lon="9.46691">
        <ele>12.4</ele>
        <time>2023-06-16T19:00:22.962Z</time>
      </trkpt>
      <trkpt lat="42.75426" lon="9.46735">
        <ele>18.2</ele>
        <time>2023-06-16T19:01:16.730Z</time>
      </trkpt>
      <trkpt lat="42.75387" lon="9.46715">
        <ele>24.3</ele>
        <time>2023-06-16T19:01:34.400Z</time>
      </trkpt>
      <trkpt lat="42.75323" lon="9.46778">
        <ele>16.8</ele>
        <time>2023-06-16T19:01:52.271Z</time>
      </trkpt>
      <trkpt lat="42.75298" lon="9.46784">
        <ele>16.5</ele>
        <time>2023-06-16T19:01:58.604Z</time>
      </trkpt>
      <trkpt lat="42.75266" lon="9.46764">
        <ele>18.8</ele>
        <time>2023-06-16T19:02:09.833Z</time>
      </trkpt>
      <trkpt lat="42.75212" lon="9.46641">
        <ele>15.8</ele>
        <time>2023-06-16T19:02:34.801Z</time>
      </trkpt>
      <trkpt lat="42.7511" lon="9.46589">
        <ele>11.8</ele>
        <time>2023-06-16T19:03:00.022Z</time>
      </trkpt>
      <trkpt lat="42.75082" lon="9.46538">
        <ele>10.9</ele>
        <time>2023-06-16T19:03:11.429Z</time>
      </trkpt>
      <trkpt lat="42.75069" lon="9.4644">
        <ele>10.2</ele>
        <time>2023-06-16T19:03:29.796Z</time>
      </trkpt>
      <trkpt lat="42.75001" lon="9.46396">
        <ele>9.9</ele>
        <time>2023-06-16T19:03:49.031Z</time>
      </trkpt>
      <trkpt lat="42.74957" lon="9.46337">
        <ele>9.4</ele>
        <time>2023-06-16T19:04:04.611Z</time>
      </trkpt>
      <trkpt lat="42.74874" lon="9.46362">
        <ele>9</ele>
        <time>2023-06-16T19:04:26.281Z</time>
      </trkpt>
      <trkpt lat="42.74542" lon="9.46306">
        <ele>6</ele>
        <time>2023-06-16T19:05:50.463Z</time>
      </trkpt>
      <trkpt lat="42.73995" lon="9.46069">
        <ele>6.6</ele>
        <time>2023-06-16T19:08:19.406Z</time>
      </trkpt>
      <trkpt lat="42.73576" lon="9.46209">
        <ele>12.8</ele>
        <time>2023-06-16T19:10:16.085Z</time>
      </trkpt>
      <trkpt lat="42.73428" lon="9.46114">
        <ele>6.9</ele>
        <time>2023-06-16T19:10:54.051Z</time>
      </trkpt>
      <trkpt lat="42.73356" lon="9.46091">
        <ele>4.8</ele>
        <time>2023-06-16T19:11:11.604Z</time>
      </trkpt>
      <trkpt lat="42.73305" lon="9.46148">
        <ele>10.4</ele>
        <time>2023-06-16T19:11:34.085Z</time>
      </trkpt>
      <trkpt lat="42.73272" lon="9.4613">
        <ele>13.7</ele>
        <time>2023-06-16T19:11:46.534Z</time>
      </trkpt>
      <trkpt lat="42.73236" lon="9.46067">
        <ele>16.1</ele>
        <time>2023-06-16T19:12:03.790Z</time>
      </trkpt>
      <trkpt lat="42.73174" lon="9.46055">
        <ele>18</ele>
        <time>2023-06-16T19:12:21.605Z</time>
      </trkpt>
      <trkpt lat="42.73074" lon="9.45947">
        <ele>22.1</ele>
        <time>2023-06-16T19:12:58.123Z</time>
      </trkpt>
      <trkpt lat="42.7301" lon="9.45934">
        <ele>25.8</ele>
        <time>2023-06-16T19:13:18.209Z</time>
      </trkpt>
      <trkpt lat="42.72933" lon="9.45988">
        <ele>28.6</ele>
        <time>2023-06-16T19:13:43.005Z</time>
      </trkpt>
      <trkpt lat="42.72873" lon="9.45935">
        <ele>31.8</ele>
        <time>2023-06-16T19:14:04.319Z</time>
      </trkpt>
      <trkpt lat="42.72796" lon="9.45896">
        <ele>30.1</ele>
        <time>2023-06-16T19:14:24.273Z</time>
      </trkpt>
      <trkpt lat="42.72705" lon="9.45875">
        <ele>27.4</ele>
        <time>2023-06-16T19:14:46.124Z</time>
      </trkpt>
      <trkpt lat="42.72644" lon="9.45785">
        <ele>27.8</ele>
        <time>2023-06-16T19:15:09.712Z</time>
      </trkpt>
      <trkpt lat="42.72615" lon="9.45775">
        <ele>24.9</ele>
        <time>2023-06-16T19:15:16.482Z</time>
      </trkpt>
      <trkpt lat="42.72485" lon="9.45797">
        <ele>23.8</ele>
        <time>2023-06-16T19:15:49.504Z</time>
      </trkpt>
      <trkpt lat="42.72378" lon="9.45728">
        <ele>20.9</ele>
        <time>2023-06-16T19:16:17.934Z</time>
      </trkpt>
      <trkpt lat="42.72111" lon="9.45426">
        <ele>21.3</ele>
        <time>2023-06-16T19:17:48.040Z</time>
      </trkpt>
      <trkpt lat="42.7207" lon="9.45408">
        <ele>23.4</ele>
        <time>2023-06-16T19:18:01.046Z</time>
      </trkpt>
      <trkpt lat="42.71935" lon="9.45495">
        <ele>22.9</ele>
        <time>2023-06-16T19:18:39.283Z</time>
      </trkpt>
      <trkpt lat="42.71907" lon="9.455">
        <ele>23.3</ele>
        <time>2023-06-16T19:18:46.915Z</time>
      </trkpt>
      <trkpt lat="42.71867" lon="9.45457">
        <ele>25.8</ele>
        <time>2023-06-16T19:19:02.319Z</time>
      </trkpt>
      <trkpt lat="42.71825" lon="9.45448">
        <ele>23.3</ele>
        <time>2023-06-16T19:19:11.941Z</time>
      </trkpt>
      <trkpt lat="42.71763" lon="9.45532">
        <ele>23.8</ele>
        <time>2023-06-16T19:19:34.970Z</time>
      </trkpt>
      <trkpt lat="42.717" lon="9.45528">
        <ele>24.8</ele>
        <time>2023-06-16T19:19:52.106Z</time>
      </trkpt>
      <trkpt lat="42.71609" lon="9.45568">
        <ele>24.4</ele>
        <time>2023-06-16T19:20:16.524Z</time>
      </trkpt>
      <trkpt lat="42.71523" lon="9.45539">
        <ele>25.6</ele>
        <time>2023-06-16T19:20:40.423Z</time>
      </trkpt>
      <trkpt lat="42.71401" lon="9.45432">
        <ele>24.1</ele>
        <time>2023-06-16T19:21:16.793Z</time>
      </trkpt>
      <trkpt lat="42.71287" lon="9.45437">
        <ele>18.4</ele>
        <time>2023-06-16T19:21:42.605Z</time>
      </trkpt>
      <trkpt lat="42.71229" lon="9.45378">
        <ele>17.2</ele>
        <time>2023-06-16T19:22:00.411Z</time>
      </trkpt>
      <trkpt lat="42.71192" lon="9.45385">
        <ele>17.7</ele>
        <time>2023-06-16T19:22:10.483Z</time>
      </trkpt>
      <trkpt lat="42.71112" lon="9.45445">
        <ele>25.4</ele>
        <time>2023-06-16T19:22:41.544Z</time>
      </trkpt>
      <trkpt lat="42.71043" lon="9.45413">
        <ele>23.4</ele>
        <time>2023-06-16T19:22:58.895Z</time>
      </trkpt>
      <trkpt lat="42.70997" lon="9.45414">
        <ele>17.2</ele>
        <time>2023-06-16T19:23:09.307Z</time>
      </trkpt>
      <trkpt lat="42.70967" lon="9.45335">
        <ele>11.5</ele>
        <time>2023-06-16T19:23:24.095Z</time>
      </trkpt>
      <trkpt lat="42.70898" lon="9.45301">
        <ele>4.7</ele>
        <time>2023-06-16T19:23:40.702Z</time>
      </trkpt>
      <trkpt lat="42.70856" lon="9.45408">
        <ele>4</ele>
        <time>2023-06-16T19:24:03.209Z</time>
      </trkpt>
      <trkpt lat="42.70804" lon="9.4537">
        <ele>3</ele>
        <time>2023-06-16T19:24:17.706Z</time>
      </trkpt>
      <trkpt lat="42.70686" lon="9.45323">
        <ele>3.4</ele>
        <time>2023-06-16T19:24:49.827Z</time>
      </trkpt>
      <trkpt lat="42.70671" lon="9.45332">
        <ele>3</ele>
        <time>2023-06-16T19:24:53.764Z</time>
      </trkpt>
      <trkpt lat="42.70644" lon="9.4531">
        <ele>3.8</ele>
        <time>2023-06-16T19:25:02.577Z</time>
      </trkpt>
      <trkpt lat="42.70644" lon="9.45284">
        <ele>4</ele>
        <time>2023-06-16T19:25:07.682Z</time>
      </trkpt>
      <trkpt lat="42.70491" lon="9.45358">
        <ele>5.4</ele>
        <time>2023-06-16T19:25:50.814Z</time>
      </trkpt>
      <trkpt lat="42.70325" lon="9.45249">
        <ele>5.1</ele>
        <time>2023-06-16T19:26:38.247Z</time>
      </trkpt>
      <trkpt lat="42.70288" lon="9.45186">
        <ele>4.5</ele>
        <time>2023-06-16T19:26:53.108Z</time>
      </trkpt>
      <trkpt lat="42.70223" lon="9.45245">
        <ele>3</ele>
        <time>2023-06-16T19:27:12.170Z</time>
      </trkpt>
      <trkpt lat="42.70198" lon="9.45223">
        <ele>3</ele>
        <time>2023-06-16T19:27:19.870Z</time>
      </trkpt>
      <trkpt lat="42.70217" lon="9.45066">
        <ele>4.6</ele>
        <time>2023-06-16T19:27:51.426Z</time>
      </trkpt>
      <trkpt lat="42.69724" lon="9.44891">
        <ele>21.6</ele>
        <time>2023-06-16T19:30:17.773Z</time>
      </trkpt>
      <trkpt lat="42.69562" lon="9.44663">
        <ele>31.3</ele>
        <time>2023-06-16T19:31:26.526Z</time>
      </trkpt>
      <trkpt lat="42.69494" lon="9.44711">
        <ele>29.3</ele>
        <time>2023-06-16T19:31:44.833Z</time>
      </trkpt>
      <trkpt lat="42.69468" lon="9.44762">
        <ele>31.6</ele>
        <time>2023-06-16T19:31:58.681Z</time>
      </trkpt>
      <trkpt lat="42.69444" lon="9.45003">
        <ele>29.1</ele>
        <time>2023-06-16T19:32:42.981Z</time>
      </trkpt>
      <trkpt lat="42.69428" lon="9.45036">
        <ele>31.7</ele>
        <time>2023-06-16T19:32:53.039Z</time>
      </trkpt>
      <trkpt lat="42.6935" lon="9.45049">
        <ele>35.1</ele>
        <time>2023-06-16T19:33:16.344Z</time>
      </trkpt>
      <trkpt lat="42.69279" lon="9.44989">
        <ele>34.1</ele>
        <time>2023-06-16T19:33:37.185Z</time>
      </trkpt>
      <trkpt lat="42.692" lon="9.44994">
        <ele>36.7</ele>
        <time>2023-06-16T19:33:59.865Z</time>
      </trkpt>
      <trkpt lat="42.69097" lon="9.44867">
        <ele>28.4</ele>
        <time>2023-06-16T19:34:31.324Z</time>
      </trkpt>
      <trkpt lat="42.6909" lon="9.448">
        <ele>27.2</ele>
        <time>2023-06-16T19:34:43.281Z</time>
      </trkpt>
      <trkpt lat="42.69056" lon="9.44744">
        <ele>28.2</ele>
        <time>2023-06-16T19:34:57.919Z</time>
      </trkpt>
      <trkpt lat="42.68978" lon="9.44697">
        <ele>26.5</ele>
        <time>2023-06-16T19:35:18.685Z</time>
      </trkpt>
      <trkpt lat="42.68906" lon="9.44737">
        <ele>25.2</ele>
        <time>2023-06-16T19:35:37.801Z</time>
      </trkpt>
      <trkpt lat="42.68882" lon="9.44735">
        <ele>21.9</ele>
        <time>2023-06-16T19:35:43.243Z</time>
      </trkpt>
      <trkpt lat="42.68836" lon="9.44673">
        <ele>20.7</ele>
        <time>2023-06-16T19:35:59.072Z</time>
      </trkpt>
      <trkpt lat="42.68797" lon="9.44659">
        <ele>20.4</ele>
        <time>2023-06-16T19:36:09.269Z</time>
      </trkpt>
      <trkpt lat="42.68723" lon="9.44582">
        <ele>15.9</ele>
        <time>2023-06-16T19:36:30.353Z</time>
      </trkpt>
      <trkpt lat="42.68727" lon="9.44575">
        <ele>16.2</ele>
        <time>2023-06-16T19:36:32.303Z</time>
      </trkpt>
      <trkpt lat="42.68726" lon="9.44573">
        <ele>15.8</ele>
        <time>2023-06-16T19:36:32.706Z</time>
      </trkpt>
      <trkpt lat="42.68722" lon="9.44569">
        <ele>14.4</ele>
        <time>2023-06-16T19:36:33.829Z</time>
      </trkpt>
      <trkpt lat="42.68695" lon="9.44538">
        <ele>13.5</ele>
        <time>2023-06-16T19:36:42.288Z</time>
      </trkpt>
      <trkpt lat="42.68681" lon="9.44537">
        <ele>12.4</ele>
        <time>2023-06-16T19:36:45.461Z</time>
      </trkpt>
      <trkpt lat="42.68653" lon="9.44534">
        <ele>11.1</ele>
        <time>2023-06-16T19:36:51.817Z</time>
      </trkpt>
      <trkpt lat="42.68614" lon="9.44531">
        <ele>10.4</ele>
        <time>2023-06-16T19:37:01.384Z</time>
      </trkpt>
      <trkpt lat="42.68608" lon="9.4453">
        <ele>10.4</ele>
        <time>2023-06-16T19:37:02.947Z</time>
      </trkpt>
      <trkpt lat="42.68589" lon="9.44529">
        <ele>10.1</ele>
        <time>2023-06-16T19:37:07.634Z</time>
      </trkpt>
      <trkpt lat="42.68581" lon="9.4453">
        <ele>9.7</ele>
        <time>2023-06-16T19:37:09.452Z</time>
      </trkpt>
      <trkpt lat="42.68566" lon="9.44523">
        <ele>9.7</ele>
        <time>2023-06-16T19:37:13.554Z</time>
      </trkpt>
      <trkpt lat="42.68509" lon="9.44503">
        <ele>8.3</ele>
        <time>2023-06-16T19:37:27.719Z</time>
      </trkpt>
      <trkpt lat="42.68487" lon="9.44496">
        <ele>8.6</ele>
        <time>2023-06-16T19:37:33.808Z</time>
      </trkpt>
      <trkpt lat="42.68483" lon="9.44495">
        <ele>8.8</ele>
        <time>2023-06-16T19:37:35.038Z</time>
      </trkpt>
      <trkpt lat="42.68465" lon="9.4449">
        <ele>11</ele>
        <time>2023-06-16T19:37:42.110Z</time>
      </trkpt>
      <trkpt lat="42.68379" lon="9.44467">
        <ele>16.3</ele>
        <time>2023-06-16T19:38:09.614Z</time>
      </trkpt>
      <trkpt lat="42.68364" lon="9.44462">
        <ele>17.8</ele>
        <time>2023-06-16T19:38:15.103Z</time>
      </trkpt>
      <trkpt lat="42.68319" lon="9.44446">
        <ele>19.9</ele>
        <time>2023-06-16T19:38:28.981Z</time>
      </trkpt>
      <trkpt lat="42.68312" lon="9.44443">
        <ele>20.1</ele>
        <time>2023-06-16T19:38:31.049Z</time>
      </trkpt>
      <trkpt lat="42.68248" lon="9.44425">
        <ele>21.7</ele>
        <time>2023-06-16T19:38:49.296Z</time>
      </trkpt>
      <trkpt lat="42.68242" lon="9.44423">
        <ele>21.7</ele>
        <time>2023-06-16T19:38:50.894Z</time>
      </trkpt>
      <trkpt lat="42.68112" lon="9.44382">
        <ele>22.2</ele>
        <time>2023-06-16T19:39:25.810Z</time>
      </trkpt>
      <trkpt lat="42.68074" lon="9.4437">
        <ele>22</ele>
        <time>2023-06-16T19:39:35.742Z</time>
      </trkpt>
      <trkpt lat="42.6807" lon="9.44369">
        <ele>22</ele>
        <time>2023-06-16T19:39:36.794Z</time>
      </trkpt>
      <trkpt lat="42.68069" lon="9.44375">
        <ele>22</ele>
        <time>2023-06-16T19:39:37.964Z</time>
      </trkpt>
      <trkpt lat="42.68065" lon="9.44436">
        <ele>18.6</ele>
        <time>2023-06-16T19:39:48.152Z</time>
      </trkpt>
      <trkpt lat="42.68066" lon="9.44483">
        <ele>16</ele>
        <time>2023-06-16T19:39:55.975Z</time>
      </trkpt>
      <trkpt lat="42.68071" lon="9.44506">
        <ele>15.2</ele>
        <time>2023-06-16T19:39:59.965Z</time>
      </trkpt>
      <trkpt lat="42.68073" lon="9.44529">
        <ele>13.9</ele>
        <time>2023-06-16T19:40:03.818Z</time>
      </trkpt>
      <trkpt lat="42.68074" lon="9.44536">
        <ele>13.6</ele>
        <time>2023-06-16T19:40:05.005Z</time>
      </trkpt>
      <trkpt lat="42.68074" lon="9.44547">
        <ele>13.1</ele>
        <time>2023-06-16T19:40:06.835Z</time>
      </trkpt>
      <trkpt lat="42.68074" lon="9.44562">
        <ele>12.4</ele>
        <time>2023-06-16T19:40:09.330Z</time>
      </trkpt>
      <trkpt lat="42.68074" lon="9.44577">
        <ele>11.9</ele>
        <time>2023-06-16T19:40:11.826Z</time>
      </trkpt>
      <trkpt lat="42.68066" lon="9.44632">
        <ele>9.1</ele>
        <time>2023-06-16T19:40:21.154Z</time>
      </trkpt>
      <trkpt lat="42.68064" lon="9.4468">
        <ele>6.6</ele>
        <time>2023-06-16T19:40:29.152Z</time>
      </trkpt>
      <trkpt lat="42.68064" lon="9.44689">
        <ele>6.2</ele>
        <time>2023-06-16T19:40:30.650Z</time>
      </trkpt>
      <trkpt lat="42.68045" lon="9.44695">
        <ele>6</ele>
        <time>2023-06-16T19:40:35.539Z</time>
      </trkpt>
      <trkpt lat="42.68023" lon="9.44701">
        <ele>5.4</ele>
        <time>2023-06-16T19:40:40.890Z</time>
      </trkpt>
      <trkpt lat="42.68002" lon="9.44705">
        <ele>4.7</ele>
        <time>2023-06-16T19:40:45.855Z</time>
      </trkpt>
      <trkpt lat="42.6799" lon="9.44707">
        <ele>4.5</ele>
        <time>2023-06-16T19:40:48.828Z</time>
      </trkpt>
      <trkpt lat="42.67961" lon="9.44705">
        <ele>4.4</ele>
        <time>2023-06-16T19:40:56.259Z</time>
      </trkpt>
      <trkpt lat="42.67937" lon="9.44696">
        <ele>4</ele>
        <time>2023-06-16T19:41:02.391Z</time>
      </trkpt>
      <trkpt lat="42.67933" lon="9.44704">
        <ele>4</ele>
        <time>2023-06-16T19:41:04.230Z</time>
      </trkpt>
      <trkpt lat="42.67928" lon="9.44707">
        <ele>4</ele>
        <time>2023-06-16T19:41:05.644Z</time>
      </trkpt>
      <trkpt lat="42.67921" lon="9.44706">
        <ele>4</ele>
        <time>2023-06-16T19:41:07.464Z</time>
      </trkpt>
      <trkpt lat="42.67864" lon="9.4468">
        <ele>4.6</ele>
        <time>2023-06-16T19:41:23.501Z</time>
      </trkpt>
      <trkpt lat="42.67836" lon="9.44664">
        <ele>3.6</ele>
        <time>2023-06-16T19:41:30.614Z</time>
      </trkpt>
      <trkpt lat="42.67808" lon="9.4464">
        <ele>3.3</ele>
        <time>2023-06-16T19:41:38.939Z</time>
      </trkpt>
      <trkpt lat="42.67793" lon="9.4462">
        <ele>4.9</ele>
        <time>2023-06-16T19:41:45.887Z</time>
      </trkpt>
      <trkpt lat="42.6778" lon="9.44605">
        <ele>4</ele>
        <time>2023-06-16T19:41:49.745Z</time>
      </trkpt>
      <trkpt lat="42.67772" lon="9.44602">
        <ele>3.8</ele>
        <time>2023-06-16T19:41:51.740Z</time>
      </trkpt>
      <trkpt lat="42.67735" lon="9.44599">
        <ele>5</ele>
        <time>2023-06-16T19:42:02.353Z</time>
      </trkpt>
      <trkpt lat="42.67719" lon="9.446">
        <ele>5.1</ele>
        <time>2023-06-16T19:42:06.576Z</time>
      </trkpt>
      <trkpt lat="42.67679" lon="9.44611">
        <ele>3</ele>
        <time>2023-06-16T19:42:15.811Z</time>
      </trkpt>
      <trkpt lat="42.67654" lon="9.44603">
        <ele>4.9</ele>
        <time>2023-06-16T19:42:24.244Z</time>
      </trkpt>
      <trkpt lat="42.676" lon="9.4456">
        <ele>4</ele>
        <time>2023-06-16T19:42:39.733Z</time>
      </trkpt>
      <trkpt lat="42.67573" lon="9.44547">
        <ele>5.5</ele>
        <time>2023-06-16T19:42:48.484Z</time>
      </trkpt>
      <trkpt lat="42.67532" lon="9.44533">
        <ele>4.6</ele>
        <time>2023-06-16T19:42:58.732Z</time>
      </trkpt>
      <trkpt lat="42.675" lon="9.44526">
        <ele>4.4</ele>
        <time>2023-06-16T19:43:06.958Z</time>
      </trkpt>
      <trkpt lat="42.67436" lon="9.44509">
        <ele>5.7</ele>
        <time>2023-06-16T19:43:24.904Z</time>
      </trkpt>
    </trkseg>
  </trk>
</gpx>